Another Hard Day at the Office Weather Stats

 
 
 

High monthly outside Temperature, 22.8 , C
Low monthly outside Temperature, -1.0 , C
High yearly outside Temperature, 30.9 , C
Low yearly outside Temperature, -2.2 , C

Low monthly barometer, 1001.1 , mb
High monthly barometer, 1028.0 , mb
Low yearly barometer, 975.0 , mb
High yearly barometer 1041.1 , mb

High wind speed, 25.0 , mph
Time of High wind speed, 21:37 , mph
High monthly wind speed, 47.0 , mph
High yearly wind speed, 55.0 , mph

 

 




3126
                    Temp     Hi    Low   Out    Dew  Wind  Wind   Wind    Hi    Hi   Wind   Heat    THW                Rain    Heat    Cool    In     In    In     In     In   In Air  Wind  Wind    ISS   Arc.
  Date    Time     Out   Temp   Temp   Hum    Pt. Speed   Dir    Run Speed   Dir  Chill  Index  Index   Bar    Rain  Rate    D-D     D-D    Temp   Hum    Dew   Heat    EMC Density  Samp   Tx   Recept  Int.
---------------------------------------------------------------------------------------------------------------------------------------------------------------------------------------------------------------
18/01/17   0:05    0.2    0.2    0.2    88   -1.5   4.0   NNE   0.33   6.0   NNE   -1.9    0.1   -2.1  1037.1  0.00  0.00   0.063   0.000   22.2    39    7.6   21.1   7.61  .0756    115    1    100.0    5 
18/01/17   0:10    0.2    0.2    0.2    88   -1.6   4.0   NNE   0.33   6.0   NNE   -2.0    0.1   -2.1  1037.0  0.00  0.00   0.063   0.000   22.2    38    7.2   21.0   7.47  .0757    117    1    100.0    5 
18/01/17   0:15    0.1    0.2    0.1    88   -1.6   4.0   NNE   0.33   7.0   NNE   -2.1    0.0   -2.2  1037.1  0.00  0.00   0.063   0.000   22.1    38    7.1   20.9   7.48  .0757    116    1    100.0    5 
18/01/17   0:20    0.1    0.1    0.1    88   -1.6   4.0   NNE   0.33   6.0   NNE   -2.1    0.0   -2.2  1037.1  0.00  0.00   0.063   0.000   22.1    38    7.1   20.8   7.48  .0757    116    1    100.0    5 
18/01/17   0:25    0.1    0.1    0.1    88   -1.7   4.0   NNE   0.33   6.0   NNE   -2.1    0.0   -2.2  1037.1  0.00  0.00   0.063   0.000   22.0    38    7.0   20.7   7.49  .0757    116    1    100.0    5 
18/01/17   0:30    0.1    0.1    0.1    88   -1.7   4.0   NNE   0.33   5.0   NNE   -2.1    0.0   -2.2  1037.2  0.00  0.00   0.063   0.000   22.0    38    7.0   20.7   7.49  .0757    117    1    100.0    5 
18/01/17   0:35    0.0    0.1    0.0    88   -1.8   3.0   NNE   0.25   6.0   NNE   -1.5   -0.1   -1.6  1037.2  0.00  0.00   0.064   0.000   21.9    38    7.0   20.7   7.49  .0757    115    1    100.0    5 
18/01/17   0:40    0.0    0.0    0.0    88   -1.8   4.0    NE   0.33   7.0    NE   -2.2   -0.1   -2.2  1037.1  0.00  0.00   0.064   0.000   21.9    38    6.9   20.6   7.49  .0758    116    1    100.0    5 
18/01/17   0:45    0.0    0.0    0.0    88   -1.8   4.0    NE   0.33   6.0    NE   -2.2   -0.1   -2.2  1037.1  0.00  0.00   0.064   0.000   21.9    38    6.9   20.6   7.49  .0758    113    1     99.1    5 
18/01/17   0:50    0.0    0.1    0.0    88   -1.8   4.0   NNE   0.33   5.0    NE   -2.2   -0.1   -2.2  1037.2  0.00  0.00   0.064   0.000   21.8    38    6.9   20.5   7.50  .0758    117    1    100.0    5 
18/01/17   0:55    0.0    0.0    0.0    88   -1.8   3.0   NNE   0.25   6.0   NNE   -1.5   -0.1   -1.6  1037.2  0.00  0.00   0.064   0.000   21.8    38    6.9   20.5   7.50  .0758    117    1    100.0    5 
18/01/17   1:00    0.0    0.0    0.0    88   -1.8   3.0   NNE   0.25   6.0   NNE   -1.5   -0.1   -1.6  1037.2  0.00  0.00   0.064   0.000   21.8    38    6.8   20.4   7.50  .0758    116    1    100.0    5 
18/01/17   1:05    0.0    0.0    0.0    88   -1.8   3.0    NE   0.25   5.0   NNE   -1.5   -0.1   -1.6  1037.2  0.00  0.00   0.064   0.000   21.7    38    6.8   20.3   7.51  .0758    116    1    100.0    5 
18/01/17   1:10    0.0    0.1    0.0    88   -1.8   3.0    NE   0.25   8.0    NE   -1.5   -0.1   -1.6  1037.1  0.00  0.00   0.064   0.000   21.7    38    6.7   20.2   7.51  .0758    116    1    100.0    5 
18/01/17   1:15    0.0    0.1    0.0    88   -1.8   3.0    NE   0.25   5.0    NE   -1.5   -0.1   -1.6  1037.2  0.00  0.00   0.064   0.000   21.7    38    6.7   20.2   7.51  .0758    116    1    100.0    5 
18/01/17   1:20    0.0    0.0    0.0    87   -1.9   3.0    NE   0.25   7.0    NE   -1.5   -0.1   -1.6  1037.2  0.00  0.00   0.064   0.000   21.6    38    6.7   20.2   7.51  .0758    116    1    100.0    5 
18/01/17   1:25    0.0    0.0    0.0    87   -1.9   4.0    NE   0.33   7.0    NE   -2.2   -0.1   -2.3  1037.3  0.00  0.00   0.064   0.000   21.6    38    6.6   20.1   7.52  .0759    116    1    100.0    5 
18/01/17   1:30   -0.1    0.0   -0.1    87   -2.0   3.0    NE   0.25   7.0    NE   -1.6   -0.2   -1.7  1037.4  0.00  0.00   0.064   0.000   21.5    38    6.6   20.0   7.52  .0759    117    1    100.0    5 
18/01/17   1:35    0.0    0.0   -0.1    87   -1.9   3.0    NE   0.25   7.0    NE   -1.5   -0.1   -1.6  1037.3  0.00  0.00   0.064   0.000   21.5    38    6.6   20.0   7.52  .0759    116    1    100.0    5 
18/01/17   1:40   -0.1    0.0   -0.1    87   -2.0   4.0    NE   0.33   7.0    NE   -2.2   -0.2   -2.3  1037.4  0.00  0.00   0.064   0.000   21.4    38    6.5   19.9   7.53  .0759    117    1    100.0    5 
18/01/17   1:45   -0.1   -0.1   -0.1    87   -2.0   4.0    NE   0.33   6.0    NE   -2.2   -0.2   -2.3  1037.4  0.00  0.00   0.064   0.000   21.4    38    6.5   19.9   7.53  .0759    117    1    100.0    5 
18/01/17   1:50   -0.1   -0.1   -0.1    87   -2.0   4.0   NNE   0.33   6.0   NNE   -2.3   -0.2   -2.4  1037.2  0.00  0.00   0.064   0.000   21.4    38    6.5   19.9   7.53  .0759    117    1    100.0    5 
18/01/17   1:55   -0.2   -0.1   -0.2    87   -2.1   4.0   NNE   0.33   5.0   NNE   -2.4   -0.3   -2.5  1037.3  0.00  0.00   0.064   0.000   21.3    38    6.4   19.8   7.53  .0759    117    1    100.0    5 
18/01/17   2:00   -0.2   -0.2   -0.2    87   -2.1   4.0   NNE   0.33   6.0   NNE   -2.4   -0.3   -2.6  1037.4  0.00  0.00   0.064   0.000   21.3    38    6.4   19.7   7.54  .0760    117    1    100.0    5 
18/01/17   2:05   -0.2   -0.2   -0.2    87   -2.1   4.0    NE   0.33   6.0   NNE   -2.4   -0.3   -2.6  1037.3  0.00  0.00   0.064   0.000   21.3    38    6.4   19.7   7.54  .0760    116    1    100.0    5 
18/01/17   2:10   -0.3   -0.2   -0.3    87   -2.2   4.0   NNE   0.33   6.0   NNE   -2.5   -0.4   -2.6  1037.4  0.00  0.00   0.065   0.000   21.2    38    6.3   19.7   7.54  .0760    115    1    100.0    5 
18/01/17   2:15   -0.3   -0.3   -0.3    87   -2.2   4.0   NNE   0.33   6.0   NNE   -2.5   -0.4   -2.6  1037.4  0.00  0.00   0.065   0.000   21.2    38    6.3   19.6   7.55  .0760    118    1    100.0    5 
18/01/17   2:20   -0.3   -0.3   -0.3    87   -2.2   4.0   NNE   0.33   5.0   NNE   -2.6   -0.4   -2.7  1037.3  0.00  0.00   0.065   0.000   21.1    38    6.2   19.5   7.55  .0760    117    1    100.0    5 
18/01/17   2:25   -0.3   -0.3   -0.3    87   -2.2   4.0   NNE   0.33   5.0   NNE   -2.6   -0.4   -2.7  1037.3  0.00  0.00   0.065   0.000   21.1    38    6.2   19.5   7.55  .0760    117    1    100.0    5 
18/01/17   2:30   -0.3   -0.3   -0.3    87   -2.2   3.0   NNE   0.25   5.0   NNE   -1.9   -0.4   -2.0  1037.3  0.00  0.00   0.065   0.000   21.0    38    6.1   19.4   7.55  .0760    116    1    100.0    5 
18/01/17   2:35   -0.3   -0.3   -0.3    87   -2.2   4.0   NNE   0.33   6.0   NNE   -2.6   -0.4   -2.7  1037.3  0.00  0.00   0.065   0.000   21.0    38    6.1   19.4   7.55  .0760    116    1    100.0    5 
18/01/17   2:40   -0.4   -0.3   -0.4    86   -2.4   4.0   NNE   0.33   6.0   NNE   -2.6   -0.5   -2.7  1037.2  0.00  0.00   0.065   0.000   20.9    38    6.1   19.4   7.55  .0760    116    1    100.0    5 
18/01/17   2:45   -0.4   -0.3   -0.4    86   -2.4   5.0   NNE   0.42   6.0   NNE   -3.2   -0.5   -3.3  1037.2  0.00  0.00   0.065   0.000   20.9    38    6.1   19.4   7.55  .0760    115    1    100.0    5 
18/01/17   2:50   -0.4   -0.4   -0.4    86   -2.4   4.0   NNE   0.33   6.0   NNE   -2.6   -0.5   -2.7  1037.2  0.00  0.00   0.065   0.000   20.9    38    6.0   19.3   7.55  .0761    116    1    100.0    5 
18/01/17   2:55   -0.4   -0.4   -0.4    86   -2.5   4.0   NNE   0.33   6.0   NNE   -2.7   -0.6   -2.8  1037.2  0.00  0.00   0.065   0.000   20.8    38    6.0   19.3   7.55  .0761    116    1    100.0    5 
18/01/17   3:00   -0.4   -0.4   -0.4    86   -2.5   4.0   NNE   0.33   6.0   NNE   -2.7   -0.6   -2.8  1037.2  0.00  0.00   0.065   0.000   20.8    38    6.0   19.3   7.55  .0761    115    1    100.0    5 
18/01/17   3:05   -0.5   -0.4   -0.5    86   -2.6   4.0   NNE   0.33   5.0   NNE   -2.8   -0.6   -2.9  1037.2  0.00  0.00   0.065   0.000   20.8    38    5.9   19.3   7.55  .0761    117    1    100.0    5 
18/01/17   3:10   -0.5   -0.5   -0.5    86   -2.6   3.0   NNE   0.25   5.0   NNE   -2.1   -0.6   -2.2  1037.2  0.00  0.00   0.065   0.000   20.8    38    5.9   19.3   7.55  .0761    117    1    100.0    5 
18/01/17   3:15   -0.4   -0.4   -0.5    86   -2.5   3.0   NNE   0.25   5.0   NNE   -2.0   -0.6   -2.1  1037.1  0.00  0.00   0.065   0.000   20.8    38    5.9   19.3   7.55  .0761    116    1    100.0    5 
18/01/17   3:20   -0.4   -0.4   -0.4    86   -2.5   3.0   NNE   0.25   5.0   NNE   -2.0   -0.6   -2.1  1037.1  0.00  0.00   0.065   0.000   20.7    38    5.9   19.2   7.55  .0761    117    1    100.0    5 
18/01/17   3:25   -0.4   -0.4   -0.4    86   -2.5   3.0   NNE   0.25   5.0   NNE   -2.0   -0.6   -2.1  1037.2  0.00  0.00   0.065   0.000   20.7    38    5.8   19.2   7.55  .0761    117    1    100.0    5 
18/01/17   3:30   -0.4   -0.4   -0.4    86   -2.5   3.0   NNE   0.25   5.0   NNE   -2.0   -0.6   -2.1  1037.1  0.00  0.00   0.065   0.000   20.7    38    5.8   19.2   7.55  .0761    116    1    100.0    5 
18/01/17   3:35   -0.4   -0.4   -0.5    86   -2.5   4.0   NNE   0.33   6.0   NNE   -2.7   -0.6   -2.8  1037.1  0.00  0.00   0.065   0.000   20.7    38    5.8   19.2   7.55  .0761    117    1    100.0    5 
18/01/17   3:40   -0.5   -0.4   -0.5    86   -2.6   4.0   NNE   0.33   5.0   NNE   -2.8   -0.6   -2.9  1037.1  0.00  0.00   0.065   0.000   20.6    38    5.7   19.1   7.55  .0762    117    1    100.0    5 
18/01/17   3:45   -0.5   -0.5   -0.5    86   -2.6   4.0   NNE   0.33   5.0   NNE   -2.8   -0.6   -2.9  1037.1  0.00  0.00   0.065   0.000   20.6    38    5.7   19.1   7.55  .0762    117    1    100.0    5 
18/01/17   3:50   -0.5   -0.5   -0.6    86   -2.6   4.0   NNE   0.33   6.0   NNE   -2.8   -0.6   -2.9  1037.1  0.00  0.00   0.065   0.000   20.4    38    5.6   19.0   7.55  .0762    116    1    100.0    5 
18/01/17   3:55   -0.5   -0.5   -0.5    86   -2.6   3.0   NNE   0.25   5.0   NNE   -2.1   -0.6   -2.2  1037.2  0.00  0.00   0.065   0.000   20.4    38    5.6   19.0   7.55  .0762    116    1    100.0    5 
18/01/17   4:00   -0.5   -0.5   -0.5    86   -2.6   3.0   NNE   0.25   5.0   NNE   -2.1   -0.6   -2.2  1037.1  0.00  0.00   0.065   0.000   20.4    38    5.6   18.9   7.55  .0762    116    1    100.0    5 
18/01/17   4:05   -0.5   -0.5   -0.5    86   -2.6   3.0   NNE   0.25   5.0   NNE   -2.1   -0.6   -2.2  1037.0  0.00  0.00   0.065   0.000   20.3    38    5.5   18.9   7.55  .0762    117    1    100.0    5 
18/01/17   4:10   -0.5   -0.5   -0.5    85   -2.7   3.0   NNE   0.25   5.0   NNE   -2.1   -0.6   -2.2  1037.1  0.00  0.00   0.065   0.000   20.3    38    5.5   18.8   7.55  .0762    116    1    100.0    5 
18/01/17   4:15   -0.5   -0.5   -0.5    86   -2.6   4.0   NNE   0.33   5.0   NNE   -2.8   -0.6   -2.9  1036.9  0.00  0.00   0.065   0.000   20.2    38    5.4   18.8   7.55  .0762    117    1    100.0    5 
18/01/17   4:20   -0.5   -0.5   -0.5    85   -2.7   3.0   NNE   0.25   5.0   NNE   -2.1   -0.6   -2.2  1036.9  0.00  0.00   0.065   0.000   20.2    38    5.4   18.7   7.55  .0763    116    1    100.0    5 
18/01/17   4:25   -0.5   -0.5   -0.5    85   -2.7   3.0   NNE   0.25   5.0   NNE   -2.1   -0.6   -2.2  1036.9  0.00  0.00   0.065   0.000   20.2    38    5.4   18.7   7.55  .0763    118    1    100.0    5 
18/01/17   4:30   -0.5   -0.5   -0.6    86   -2.6   3.0   NNE   0.25   6.0   NNE   -2.1   -0.6   -2.2  1037.0  0.00  0.00   0.065   0.000   20.1    38    5.3   18.7   7.55  .0763    115    1    100.0    5 
18/01/17   4:35   -0.6   -0.5   -0.6    85   -2.8   4.0   NNE   0.33   6.0   NNE   -2.8   -0.7   -2.9  1036.9  0.00  0.00   0.066   0.000   20.1    38    5.3   18.6   7.55  .0763    117    1    100.0    5 
18/01/17   4:40   -0.5   -0.5   -0.6    85   -2.7   4.0   NNE   0.33   7.0   NNE   -2.8   -0.6   -2.9  1036.9  0.00  0.00   0.065   0.000   20.1    38    5.3   18.6   7.55  .0763    116    1    100.0    5 
18/01/17   4:45   -0.5   -0.5   -0.5    85   -2.7   4.0   NNE   0.33   8.0    NE   -2.8   -0.6   -2.9  1036.8  0.00  0.00   0.065   0.000   20.0    38    5.2   18.6   7.55  .0763    117    1    100.0    5 
18/01/17   4:50   -0.5   -0.5   -0.5    85   -2.7   4.0   NNE   0.33   7.0   NNE   -2.8   -0.6   -2.9  1036.8  0.00  0.00   0.065   0.000   19.9    38    5.2   18.5   7.55  .0763    117    1    100.0    5 
18/01/17   4:55   -0.5   -0.5   -0.5    85   -2.7   4.0   NNE   0.33   6.0   NNE   -2.8   -0.6   -2.9  1036.8  0.00  0.00   0.065   0.000   19.9    38    5.2   18.5   7.55  .0763    117    1    100.0    5 
18/01/17   5:00   -0.5   -0.5   -0.5    85   -2.7   4.0   NNE   0.33   7.0   NNE   -2.8   -0.6   -2.9  1036.8  0.00  0.00   0.065   0.000   19.9    38    5.1   18.4   7.55  .0763    116    1    100.0    5 
18/01/17   5:05   -0.5   -0.5   -0.5    85   -2.7   5.0   NNE   0.42   7.0   NNE   -3.3   -0.6   -3.4  1036.9  0.00  0.00   0.065   0.000   19.8    38    5.1   18.3   7.55  .0764    117    1    100.0    5 
18/01/17   5:10   -0.5   -0.5   -0.5    85   -2.7   4.0   NNE   0.33   6.0   NNE   -2.8   -0.6   -2.9  1036.9  0.00  0.00   0.065   0.000   19.8    38    5.0   18.3   7.55  .0764    117    1    100.0    5 
18/01/17   5:15   -0.5   -0.4   -0.5    85   -2.7   4.0   NNE   0.33   6.0   NNE   -2.8   -0.6   -2.9  1036.9  0.00  0.00   0.065   0.000   19.7    38    5.0   18.2   7.55  .0764    117    1    100.0    5 
18/01/17   5:20   -0.4   -0.4   -0.4    85   -2.7   4.0   NNE   0.33   6.0   NNE   -2.7   -0.6   -2.8  1036.9  0.00  0.00   0.065   0.000   19.7    38    5.0   18.2   7.55  .0764    116    1    100.0    5 
18/01/17   5:25   -0.4   -0.4   -0.4    85   -2.7   4.0   NNE   0.33   7.0   NNE   -2.7   -0.6   -2.8  1037.0  0.00  0.00   0.065   0.000   19.7    38    4.9   18.2   7.55  .0764    117    1    100.0    5 
18/01/17   5:30   -0.4   -0.4   -0.4    85   -2.7   4.0   NNE   0.33   6.0   NNE   -2.7   -0.6   -2.8  1036.9  0.00  0.00   0.065   0.000   19.6    38    4.9   18.1   7.55  .0764    118    1    100.0    5 
18/01/17   5:35   -0.5   -0.4   -0.5    85   -2.7   4.0   NNE   0.33   7.0   NNE   -2.8   -0.6   -2.9  1036.9  0.00  0.00   0.065   0.000   19.6    38    4.9   18.1   7.55  .0764    116    1    100.0    5 
18/01/17   5:40   -0.5   -0.5   -0.5    85   -2.7   3.0   NNE   0.25   5.0   NNE   -2.1   -0.6   -2.2  1036.9  0.00  0.00   0.065   0.000   19.6    38    4.8   18.1   7.55  .0764    117    1    100.0    5 
18/01/17   5:45   -0.6   -0.5   -0.6    85   -2.8   3.0   NNE   0.25   5.0   NNE   -2.1   -0.7   -2.2  1036.9  0.00  0.00   0.066   0.000   19.5    38    4.8   18.0   7.55  .0765    117    1    100.0    5 
18/01/17   5:50   -0.6   -0.6   -0.6    85   -2.8   3.0   NNE   0.25   5.0    NE   -2.2   -0.7   -2.3  1037.1  0.00  0.00   0.066   0.000   19.4    38    4.7   17.9   7.55  .0765    116    1    100.0    5 
18/01/17   5:55   -0.7   -0.6   -0.7    85   -2.9   3.0   NNE   0.25   5.0   NNE   -2.2   -0.8   -2.3  1037.1  0.00  0.00   0.066   0.000   19.4    38    4.7   17.9   7.55  .0765    117    1    100.0    5 
18/01/17   6:00   -0.7   -0.7   -0.7    85   -2.9   3.0   NNE   0.25   5.0   NNE   -2.2   -0.8   -2.3  1037.1  0.00  0.00   0.066   0.000   19.4    37    4.3   17.8   7.35  .0765    116    1    100.0    5 
18/01/17   6:05   -0.8   -0.7   -0.8    85   -3.0   3.0   NNE   0.25   5.0   NNE   -2.4   -0.9   -2.5  1037.1  0.00  0.00   0.066   0.000   19.4    37    4.3   17.8   7.35  .0765    116    1    100.0    5 
18/01/17   6:10   -0.8   -0.8   -0.8    85   -3.0   2.0   NNE   0.17   5.0   NNE   -1.4   -0.9   -1.6  1037.2  0.00  0.00   0.066   0.000   19.3    37    4.3   17.7   7.35  .0765    116    1    100.0    5 
18/01/17   6:15   -0.8   -0.8   -0.8    86   -2.9   3.0   NNE   0.25   5.0   NNE   -2.4   -0.9   -2.6  1037.3  0.00  0.00   0.067   0.000   19.3    37    4.2   17.7   7.35  .0766    116    1    100.0    5 
18/01/17   6:20   -0.8   -0.8   -0.9    86   -2.9   4.0   NNE   0.33   6.0   NNE   -3.2   -0.9   -3.3  1037.3  0.00  0.00   0.067   0.000   19.2    37    4.2   17.6   7.35  .0766    117    1    100.0    5 
18/01/17   6:25   -0.9   -0.8   -0.9    86   -2.9   4.0   NNE   0.33   6.0   NNE   -3.2   -1.0   -3.3  1037.4  0.00  0.00   0.067   0.000   19.2    38    4.5   17.7   7.55  .0766    116    1    100.0    5 
18/01/17   6:30   -0.9   -0.9   -0.9    86   -2.9   6.0   NNE   0.50   9.0   NNE   -4.3   -1.0   -4.4  1037.3  0.00  0.00   0.067   0.000   19.2    37    4.2   17.6   7.35  .0766    117    1    100.0    5 
18/01/17   6:35   -0.9   -0.9   -0.9    86   -2.9   5.0   NNE   0.42   7.0   NNE   -3.8   -1.0   -3.9  1037.4  0.00  0.00   0.067   0.000   19.2    37    4.2   17.6   7.35  .0766    117    1    100.0    5 
18/01/17   6:40   -0.9   -0.9   -0.9    87   -2.8   5.0   NNE   0.42   7.0   NNE   -3.8   -1.0   -3.9  1037.4  0.00  0.00   0.067   0.000   19.2    37    4.2   17.6   7.35  .0766    118    1    100.0    5 
18/01/17   6:45   -0.9   -0.9   -0.9    87   -2.8   5.0   NNE   0.42   7.0   NNE   -3.8   -1.0   -3.9  1037.5  0.00  0.00   0.067   0.000   19.2    37    4.2   17.6   7.35  .0766    117    1    100.0    5 
18/01/17   6:50   -0.9   -0.9   -0.9    87   -2.8   5.0   NNE   0.42   7.0   NNE   -3.8   -1.0   -3.9  1037.5  0.00  0.00   0.067   0.000   19.2    38    4.5   17.7   7.55  .0766    117    1    100.0    5 
18/01/17   6:55   -0.9   -0.9   -0.9    87   -2.8   5.0   NNE   0.42   7.0   NNE   -3.8   -1.0   -3.9  1037.5  0.00  0.00   0.067   0.000   19.2    38    4.5   17.7   7.55  .0766    115    1    100.0    5 
18/01/17   7:00   -0.9   -0.9   -0.9    87   -2.8   5.0   NNE   0.42   7.0   NNE   -3.8   -1.0   -3.9  1037.5  0.00  0.00   0.067   0.000   19.2    38    4.5   17.7   7.55  .0766    117    1    100.0    5 
18/01/17   7:05   -0.9   -0.9   -0.9    87   -2.8   5.0   NNE   0.42   7.0   NNE   -3.8   -1.0   -3.9  1037.5  0.00  0.00   0.067   0.000   19.2    38    4.5   17.7   7.55  .0766    116    1    100.0    5 
18/01/17   7:10   -0.9   -0.9   -0.9    87   -2.8   5.0   NNE   0.42   7.0   NNE   -3.8   -1.0   -3.9  1037.5  0.00  0.00   0.067   0.000   19.2    38    4.5   17.7   7.55  .0766    117    1    100.0    5 
18/01/17   7:15   -0.9   -0.9   -0.9    87   -2.8   4.0   NNE   0.33   7.0   NNE   -3.2   -1.0   -3.3  1037.6  0.00  0.00   0.067   0.000   19.2    38    4.5   17.7   7.55  .0766    117    1    100.0    5 
18/01/17   7:20   -0.9   -0.9   -0.9    87   -2.8   4.0   NNE   0.33   6.0     N   -3.2   -1.0   -3.3  1037.6  0.00  0.00   0.067   0.000   19.2    38    4.5   17.7   7.55  .0766    117    1    100.0    5 
18/01/17   7:25   -0.9   -0.9   -0.9    87   -2.8   4.0   NNE   0.33   6.0   NNE   -3.2   -1.0   -3.3  1037.7  0.00  0.00   0.067   0.000   19.2    38    4.5   17.7   7.55  .0766    117    1    100.0    5 
18/01/17   7:30   -0.9   -0.9   -0.9    87   -2.8   4.0   NNE   0.33   6.0   NNE   -3.3   -1.1   -3.4  1037.7  0.00  0.00   0.067   0.000   19.3    38    4.6   17.7   7.55  .0766    116    1    100.0    5 
18/01/17   7:35   -0.9   -0.9   -0.9    87   -2.8   4.0   NNE   0.33   6.0   NNE   -3.3   -1.1   -3.4  1037.7  0.00  0.00   0.067   0.000   19.3    38    4.6   17.7   7.55  .0766    117    1    100.0    5 
18/01/17   7:40   -0.9   -0.9   -0.9    87   -2.8   4.0   NNE   0.33   6.0   NNE   -3.2   -1.0   -3.3  1037.7  0.00  0.00   0.067   0.000   19.3    38    4.6   17.7   7.55  .0766    117    1    100.0    5 
18/01/17   7:45   -0.8   -0.8   -0.9    87   -2.7   4.0   NNE   0.33   5.0   NNE   -3.2   -0.9   -3.3  1037.8  0.00  0.00   0.067   0.000   19.3    38    4.6   17.8   7.55  .0766    117    1    100.0    5 
18/01/17   7:50   -0.7   -0.7   -0.8    87   -2.6   4.0   NNE   0.33   6.0   NNE   -3.0   -0.8   -3.1  1037.8  0.00  0.00   0.066   0.000   19.4    38    4.7   17.9   7.55  .0766    117    1    100.0    5 
18/01/17   7:55   -0.7   -0.7   -0.8    88   -2.4   4.0   NNE   0.33   6.0   NNE   -2.9   -0.8   -3.1  1037.8  0.00  0.00   0.066   0.000   19.4    38    4.7   17.9   7.55  .0766    117    1    100.0    5 
18/01/17   8:00   -0.6   -0.6   -0.7    88   -2.3   4.0     N   0.33   6.0   NNE   -2.8   -0.7   -2.9  1037.8  0.00  0.00   0.066   0.000   19.4    38    4.7   17.9   7.55  .0765    116    1    100.0    5 
18/01/17   8:05   -0.5   -0.5   -0.6    87   -2.4   4.0     N   0.33   5.0     N   -2.8   -0.6   -2.9  1037.9  0.00  0.00   0.065   0.000   19.4    38    4.7   17.9   7.55  .0765    116    1    100.0    5 
18/01/17   8:10   -0.4   -0.4   -0.5    88   -2.2   4.0     N   0.33   6.0     N   -2.7   -0.6   -2.8  1037.8  0.00  0.00   0.065   0.000   19.5    38    4.8   18.0   7.55  .0765    117    1    100.0    5 
18/01/17   8:15   -0.3   -0.3   -0.4    88   -2.0   4.0   NNE   0.33   7.0   NNE   -2.5   -0.4   -2.6  1037.9  0.00  0.00   0.065   0.000   19.5    38    4.8   18.0   7.55  .0765    117    1    100.0    5 
18/01/17   8:20   -0.2   -0.2   -0.3    87   -2.1   4.0   NNE   0.33   6.0   NNE   -2.4   -0.3   -2.5  1038.0  0.00  0.00   0.064   0.000   19.6    38    4.8   18.1   7.55  .0765    117    1    100.0    5 
18/01/17   8:25   -0.1   -0.1   -0.2    88   -1.8   4.0   NNE   0.33   6.0   NNE   -2.2   -0.1   -2.3  1038.1  0.00  0.00   0.064   0.000   19.6    38    4.8   18.1   7.55  .0765    117    1    100.0    5 
18/01/17   8:30    0.1    0.1   -0.1    87   -1.8   4.0     N   0.33   7.0   NNE   -2.1    0.0   -2.2  1038.1  0.00  0.00   0.063   0.000   19.6    38    4.9   18.1   7.55  .0765    117    1    100.0    5 
18/01/17   8:35    0.3    0.3    0.1    87   -1.6   4.0   NNE   0.33   5.0   NNE   -1.8    0.2   -1.9  1038.1  0.00  0.00   0.063   0.000   19.7    38    5.0   18.2   7.55  .0765    116    1    100.0    5 
18/01/17   8:40    0.4    0.4    0.3    87   -1.5   3.0   NNE   0.25   5.0   NNE   -1.0    0.3   -1.1  1038.1  0.00  0.00   0.062   0.000   19.8    38    5.1   18.3   7.55  .0764    117    1    100.0    5 
18/01/17   8:45    0.7    0.7    0.4    87   -1.2   5.0   NNE   0.42   7.0   NNE   -1.9    0.6   -2.0  1038.1  0.00  0.00   0.061   0.000   19.9    38    5.1   18.4   7.55  .0764    117    1    100.0    5 
18/01/17   8:50    1.0    1.0    0.7    86   -1.1   5.0   NNE   0.42   7.0   NNE   -1.6    0.8   -1.7  1038.1  0.00  0.00   0.060   0.000   19.8    38    5.1   18.3   7.55  .0764    117    1    100.0    5 
18/01/17   8:55    1.3    1.3    1.0    86   -0.8   5.0   NNE   0.42   8.0   NNE   -1.2    1.1   -1.4  1038.1  0.00  0.00   0.059   0.000   19.8    38    5.1   18.3   7.55  .0764    117    1    100.0    5 
18/01/17   9:00    1.5    1.5    1.3    85   -0.7   4.0   NNE   0.33   7.0   NNE   -0.4    1.4   -0.6  1038.0  0.00  0.00   0.058   0.000   19.8    38    5.1   18.3   7.55  .0764    117    1    100.0    5 
18/01/17   9:05    1.7    1.7    1.5    85   -0.5   3.0   NNE   0.25   6.0   NNE    0.4    1.6    0.3  1038.0  0.00  0.00   0.058   0.000   19.8    38    5.1   18.3   7.55  .0764    115    1    100.0    5 
18/01/17   9:10    2.1    2.1    1.7    84   -0.4   3.0   NNE   0.25   5.0   NNE    0.8    1.9    0.7  1038.0  0.00  0.00   0.057   0.000   19.8    39    5.5   18.4   7.70  .0764    117    1    100.0    5 
18/01/17   9:15    2.3    2.3    2.1    83   -0.3   3.0    NE   0.25   6.0    NE    1.2    2.2    1.1  1038.1  0.01  0.00   0.056   0.000   19.9    39    5.5   18.5   7.69  .0764    117    1    100.0    5 
18/01/17   9:20    2.6    2.6    2.3    83   -0.0   3.0   NNE   0.25   8.0    NE    1.4    2.4    1.3  1038.1  0.00  0.00   0.055   0.000   19.9    39    5.5   18.5   7.69  .0764    116    1    100.0    5 
18/01/17   9:25    2.8    2.8    2.6    81   -0.2   4.0    NE   0.33   7.0   NNE    1.1    2.6    0.9  1038.0  0.00  0.00   0.054   0.000   19.9    40    5.9   18.6   7.79  .0764    117    1    100.0    5 
18/01/17   9:30    3.0    3.0    2.8    81    0.1   4.0    NE   0.33   7.0    NE    1.3    2.8    1.1  1038.1  0.00  0.00   0.053   0.000   20.0    40    6.0   18.7   7.79  .0764    116    1    100.0    5 
18/01/17   9:35    3.3    3.3    3.1    80    0.2   4.0   NNE   0.33   7.0   NNE    1.7    3.2    1.5  1038.2  0.00  0.00   0.052   0.000   20.1    40    6.0   18.7   7.79  .0763    117    1    100.0    5 
18/01/17   9:40    3.6    3.6    3.4    79    0.3   4.0    NE   0.33   9.0    NE    2.0    3.4    1.8  1038.1  0.00  0.00   0.051   0.000   20.1    40    6.1   18.8   7.79  .0763    117    1    100.0    5 
18/01/17   9:45    3.7    3.7    3.6    78    0.2   4.0    NE   0.33   8.0   NNE    2.1    3.5    1.9  1038.0  0.00  0.00   0.051   0.000   20.1    40    6.1   18.8   7.79  .0763    115    1    100.0    5 
18/01/17   9:50    3.7    3.7    3.7    78    0.2   5.0   NNE   0.42   8.0    NE    1.6    3.6    1.4  1038.0  0.00  0.00   0.051   0.000   20.2    40    6.1   18.8   7.78  .0763    116    1    100.0    5 
18/01/17   9:55    3.8    3.8    3.7    78    0.3   4.0   NNE   0.33   9.0    NE    2.2    3.7    2.1  1038.0  0.00  0.00   0.050   0.000   20.2    40    6.2   18.9   7.78  .0763    118    1    100.0    5 
18/01/17  10:00    4.0    4.0    3.8    79    0.7   3.0    NE   0.25   8.0    NE    3.1    3.8    2.9  1038.0  0.00  0.00   0.050   0.000   20.3    40    6.2   18.9   7.78  .0763    117    1    100.0    5 
18/01/17  10:05    4.3    4.3    4.0    79    1.0   4.0    NE   0.33   9.0   ENE    2.8    4.2    2.7  1037.9  0.00  0.00   0.049   0.000   20.3    40    6.2   18.9   7.78  .0763    117    1    100.0    5 
18/01/17  10:10    4.6    4.6    4.3    78    1.1   5.0    NE   0.42   8.0    NE    2.7    4.4    2.4  1037.9  0.00  0.00   0.048   0.000   20.3    40    6.3   19.0   7.78  .0762    115    1    100.0    5 
18/01/17  10:15    4.6    4.6    4.6    77    0.9   5.0    NE   0.42   9.0    NE    2.6    4.3    2.4  1037.9  0.00  0.00   0.048   0.000   20.3    40    6.3   19.0   7.78  .0762    117    1    100.0    5 
18/01/17  10:20    4.7    4.7    4.6    77    1.0   4.0    NE   0.33   8.0   ENE    3.2    4.4    3.0  1037.8  0.00  0.00   0.047   0.000   20.4    39    6.0   19.0   7.68  .0762    117    1    100.0    5 
18/01/17  10:25    4.9    4.9    4.7    76    1.0   4.0   NNE   0.33   7.0   NNE    3.5    4.7    3.3  1037.8  0.01  0.00   0.047   0.000   20.4    39    6.0   19.1   7.67  .0762    117    1    100.0    5 
18/01/17  10:30    5.1    5.1    4.9    75    1.0   4.0   NNE   0.33   8.0   NNE    3.7    4.8    3.4  1037.8  0.00  0.00   0.046   0.000   20.5    39    6.1   19.1   7.67  .0762    117    1    100.0    5 
18/01/17  10:35    5.2    5.2    5.1    73    0.7   5.0   NNE   0.42   9.0    NE    3.3    4.9    3.1  1037.7  0.00  0.00   0.046   0.000   20.6    39    6.1   19.2   7.67  .0762    117    1    100.0    5 
18/01/17  10:40    5.0    5.2    5.0    72    0.4   6.0   NNE   0.50   9.0    NE    2.7    4.7    2.4  1037.6  0.00  0.00   0.046   0.000   20.6    39    6.1   19.2   7.67  .0762    117    1    100.0    5 
18/01/17  10:45    5.1    5.1    5.0    72    0.4   5.0   NNE   0.42   8.0   NNE    3.2    4.8    2.9  1037.7  0.00  0.00   0.046   0.000   20.6    39    6.2   19.2   7.67  .0762    117    1    100.0    5 
18/01/17  10:50    5.2    5.2    5.1    72    0.6   5.0   NNE   0.42   8.0    NE    3.4    4.9    3.1  1037.7  0.00  0.00   0.046   0.000   20.7    39    6.2   19.2   7.67  .0761    117    1    100.0    5 
18/01/17  10:55    5.3    5.3    5.2    70    0.2   6.0   NNE   0.50  10.0    NE    3.1    4.9    2.7  1037.7  0.00  0.00   0.045   0.000   20.9    39    6.4   19.4   7.66  .0761    118    1    100.0    5 
18/01/17  11:00    5.3    5.3    5.2    70    0.2   5.0    NE   0.42  10.0   NNE    3.4    4.9    3.1  1037.7  0.00  0.00   0.045   0.000   21.1    39    6.6   19.6   7.65  .0760    116    1    100.0    5 
18/01/17  11:05    5.3    5.3    5.2    70    0.3   4.0   NNE   0.33   8.0    NE    4.0    5.0    3.7  1037.7  0.00  0.00   0.045   0.000   21.4    39    6.9   19.9   7.64  .0759    117    1    100.0    5 
18/01/17  11:10    5.4    5.4    5.3    70    0.4   4.0   NNE   0.33   8.0   NNE    4.1    5.1    3.8  1037.7  0.00  0.00   0.045   0.000   21.6    39    7.1   20.2   7.63  .0759    117    1    100.0    5 
18/01/17  11:15    5.6    5.6    5.4    69    0.3   5.0   NNE   0.42  10.0   NNE    3.8    5.2    3.4  1037.6  0.00  0.00   0.044   0.000   21.8    39    7.3   20.6   7.62  .0758    117    1    100.0    5 
18/01/17  11:20    5.6    5.6    5.6    69    0.4   5.0   NNE   0.42   9.0   NNE    3.8    5.3    3.5  1037.5  0.00  0.00   0.044   0.000   22.1    39    7.5   20.9   7.62  .0757    116    1    100.0    5 
18/01/17  11:25    5.7    5.7    5.6    68    0.2   3.0   NNE   0.25   8.0    NE    4.9    5.3    4.6  1037.6  0.00  0.00   0.044   0.000   22.2    38    7.2   21.0   7.47  .0757    117    1    100.0    5 
18/01/17  11:30    5.7    5.7    5.7    68    0.2   4.0   NNE   0.33   8.0    NE    4.3    5.3    4.0  1037.6  0.00  0.00   0.044   0.000   22.2    38    7.2   21.0   7.47  .0757    117    1    100.0    5 
18/01/17  11:35    5.8    5.8    5.7    67    0.2   3.0    NE   0.25  10.0    NE    5.1    5.4    4.7  1037.5  0.00  0.00   0.043   0.000   22.2    39    7.6   21.1   7.61  .0757    117    1    100.0    5 
18/01/17  11:40    6.0    6.0    5.8    67    0.3   3.0   NNE   0.25   6.0     N    5.3    5.6    4.9  1037.4  0.00  0.00   0.043   0.000   22.1    39    7.5   20.9   7.61  .0757    117    1    100.0    5 
18/01/17  11:45    6.1    6.1    6.0    66    0.2   4.0    NE   0.33   8.0   NNE    4.8    5.7    4.4  1037.3  0.00  0.00   0.043   0.000   22.1    39    7.5   20.9   7.61  .0757    117    1    100.0    5 
18/01/17  11:50    6.2    6.2    6.1    64   -0.1   4.0   NNE   0.33   7.0    NE    4.9    5.8    4.6  1037.3  0.00  0.00   0.042   0.000   22.1    39    7.5   20.9   7.61  .0757    117    1    100.0    5 
18/01/17  11:55    6.3    6.3    6.2    64    0.0   3.0   NNE   0.25   8.0   NNE    5.7    5.9    5.3  1037.4  0.00  0.00   0.042   0.000   22.1    39    7.5   20.9   7.61  .0757    117    1    100.0    5 
18/01/17  12:00    6.4    6.4    6.3    63   -0.1   5.0    NE   0.42  10.0    NE    4.8    6.1    4.4  1037.3  0.00  0.00   0.041   0.000   22.1    39    7.5   20.9   7.62  .0757    117    1    100.0    5 
18/01/17  12:05    6.4    6.4    6.4    63   -0.1   5.0   NNE   0.42   9.0   NNE    4.8    6.1    4.4  1037.3  0.00  0.00   0.041   0.000   22.1    39    7.5   20.9   7.61  .0757    117    1    100.0    5 
18/01/17  12:10    6.4    6.4    6.4    64    0.1   6.0   NNE   0.50   9.0   NNE    4.4    6.0    4.0  1037.2  0.00  0.00   0.041   0.000   22.1    39    7.5   20.9   7.61  .0757    117    1    100.0    5 
18/01/17  12:15    6.3    6.4    6.3    63   -0.3   6.0   NNE   0.50  12.0    NE    4.3    5.9    3.9  1037.3  0.00  0.00   0.042   0.000   22.1    39    7.5   20.9   7.61  .0757    117    1    100.0    5 
18/01/17  12:20    6.3    6.3    6.2    64   -0.0   6.0   NNE   0.50  10.0   NNE    4.3    5.9    3.9  1037.2  0.00  0.00   0.042   0.000   22.1    39    7.5   20.9   7.61  .0757    117    1    100.0    5 
18/01/17  12:25    6.3    6.3    6.2    64   -0.0   6.0   NNE   0.50   9.0    NE    4.3    5.9    3.9  1037.2  0.00  0.00   0.042   0.000   22.1    39    7.5   20.9   7.61  .0757    116    1    100.0    5 
18/01/17  12:30    6.3    6.3    6.3    64    0.0   5.0   NNE   0.42   9.0   NNE    4.7    5.9    4.3  1037.1  0.00  0.00   0.042   0.000   22.1    39    7.5   20.9   7.61  .0757    116    1    100.0    5 
18/01/17  12:35    6.3    6.4    6.3    63   -0.2   6.0   NNE   0.50  10.0    NE    4.3    5.9    3.9  1037.2  0.00  0.00   0.042   0.000   22.2    39    7.6   21.1   7.61  .0757    117    1    100.0    5 
18/01/17  12:40    6.5    6.5    6.3    64    0.2   5.0   NNE   0.42  10.0   NNE    4.9    6.1    4.5  1037.1  0.00  0.00   0.041   0.000   22.2    39    7.6   21.1   7.61  .0756    117    1    100.0    5 
18/01/17  12:45    6.6    6.6    6.5    64    0.3   6.0   NNE   0.50  10.0    NE    4.7    6.2    4.3  1037.1  0.00  0.00   0.041   0.000   22.2    39    7.6   21.1   7.61  .0756    117    1    100.0    5 
18/01/17  12:50    6.8    6.8    6.6    63    0.2   5.0    NE   0.42   9.0   NNE    5.2    6.4    4.8  1037.1  0.00  0.00   0.040   0.000   22.2    39    7.6   21.1   7.61  .0756    117    1    100.0    5 
18/01/17  12:55    6.8    6.8    6.8    63    0.2   5.0   NNE   0.42   9.0   NNE    5.2    6.4    4.8  1037.1  0.00  0.00   0.040   0.000   22.2    39    7.6   21.1   7.61  .0756    117    1    100.0    5 
18/01/17  13:00    6.8    6.9    6.8    63    0.3   6.0   NNE   0.50  14.0   NNE    4.9    6.4    4.6  1037.1  0.00  0.00   0.040   0.000   22.2    39    7.6   21.1   7.61  .0756    117    1    100.0    5 
18/01/17  13:05    6.7    6.8    6.7    63    0.1   6.0    NE   0.50  14.0     N    4.7    6.3    4.3  1037.2  0.00  0.00   0.041   0.000   22.2    39    7.6   21.1   7.61  .0757    118    1    100.0    5 
18/01/17  13:10    6.6    6.7    6.6    64    0.3   6.0   NNE   0.50   9.0    NE    4.7    6.2    4.3  1037.1  0.00  0.00   0.041   0.000   22.2    39    7.6   21.1   7.61  .0756    117    1    100.0    5 
18/01/17  13:15    6.7    6.7    6.6    64    0.4   6.0    NE   0.50   9.0   NNE    4.8    6.3    4.4  1037.1  0.00  0.00   0.040   0.000   22.2    39    7.6   21.1   7.61  .0756    116    1    100.0    5 
18/01/17  13:20    6.8    6.8    6.7    64    0.4   6.0   NNE   0.50  10.0    NE    4.8    6.4    4.4  1037.1  0.00  0.00   0.040   0.000   22.2    39    7.6   21.1   7.61  .0756    117    1    100.0    5 
18/01/17  13:25    6.8    6.8    6.8    65    0.7   4.0   NNE   0.33  10.0   NNE    5.7    6.4    5.3  1037.0  0.00  0.00   0.040   0.000   22.3    39    7.6   21.2   7.61  .0756    117    1    100.0    5 
18/01/17  13:30    6.8    6.9    6.8    65    0.7   6.0   NNE   0.50   9.0   NNE    4.9    6.4    4.6  1036.9  0.00  0.00   0.040   0.000   22.3    39    7.7   21.3   7.61  .0756    116    1    100.0    5 
18/01/17  13:35    6.8    6.8    6.8    65    0.7   5.0   NNE   0.42   9.0   NNE    5.3    6.4    4.9  1037.0  0.00  0.00   0.040   0.000   22.3    39    7.7   21.3   7.61  .0756    117    1    100.0    5 
18/01/17  13:40    6.9    6.9    6.8    65    0.8   5.0   NNE   0.42  10.0     N    5.3    6.5    4.9  1037.0  0.00  0.00   0.040   0.000   22.3    39    7.7   21.3   7.61  .0756    117    1    100.0    5 
18/01/17  13:45    6.9    6.9    6.9    65    0.8   6.0   NNE   0.50  11.0   NNE    5.0    6.5    4.6  1037.1  0.00  0.00   0.040   0.000   22.3    39    7.6   21.2   7.61  .0756    117    1    100.0    5 
18/01/17  13:50    6.7    6.9    6.7    65    0.6   7.0   NNE   0.58  13.0   NNE    4.5    6.3    4.1  1037.1  0.00  0.00   0.040   0.000   22.3    39    7.6   21.2   7.61  .0756    117    1    100.0    5 
18/01/17  13:55    6.6    6.7    6.6    65    0.5   5.0   NNE   0.42  12.0    NE    5.1    6.2    4.7  1037.1  0.00  0.00   0.041   0.000   22.3    39    7.7   21.3   7.61  .0756    117    1    100.0    5 
18/01/17  14:00    6.6    6.6    6.6    66    0.7   6.0   NNE   0.50  11.0    NE    4.6    6.2    4.2  1037.1  0.00  0.00   0.041   0.000   22.3    39    7.6   21.2   7.61  .0756    117    1    100.0    5 
18/01/17  14:05    6.5    6.6    6.5    66    0.6   6.0   NNE   0.50  10.0    NE    4.5    6.1    4.1  1037.2  0.00  0.00   0.041   0.000   22.3    39    7.6   21.2   7.61  .0756    118    1    100.0    5 
18/01/17  14:10    6.6    6.6    6.5    66    0.7   4.0    NE   0.33   9.0    NE    5.4    6.2    5.1  1037.1  0.00  0.00   0.041   0.000   22.3    39    7.6   21.2   7.61  .0756    116    1    100.0    5 
18/01/17  14:15    6.6    6.6    6.6    66    0.7   7.0   NNE   0.58  10.0   NNE    4.3    6.2    3.9  1037.1  0.00  0.00   0.041   0.000   22.2    39    7.6   21.1   7.61  .0756    117    1    100.0    5 
18/01/17  14:20    6.4    6.6    6.4    65    0.3   6.0   NNE   0.50  11.0   NNE    4.4    6.0    4.0  1037.1  0.00  0.00   0.041   0.000   22.2    39    7.6   21.1   7.61  .0756    117    1    100.0    5 
18/01/17  14:25    6.3    6.4    6.3    65    0.2   6.0   NNE   0.50  10.0   NNE    4.3    5.9    3.9  1037.1  0.00  0.00   0.042   0.000   22.2    39    7.6   21.1   7.61  .0756    117    1    100.0    5 
18/01/17  14:30    6.2    6.3    6.2    65    0.1   6.0   NNE   0.50  10.0   NNE    4.2    5.8    3.8  1037.1  0.00  0.00   0.042   0.000   22.2    39    7.6   21.1   7.61  .0756    117    1    100.0    5 
18/01/17  14:35    6.3    6.3    6.2    66    0.4   5.0   NNE   0.42  10.0   NNE    4.7    5.9    4.3  1037.1  0.00  0.00   0.042   0.000   22.1    39    7.5   20.9   7.61  .0757    117    1    100.0    5 
18/01/17  14:40    6.3    6.3    6.3    65    0.2   6.0   NNE   0.50  10.0    NE    4.3    5.9    3.9  1037.1  0.00  0.00   0.042   0.000   22.1    39    7.5   20.9   7.61  .0757    117    1    100.0    5 
18/01/17  14:45    6.1    6.3    6.1    65   -0.0   6.0   NNE   0.50  10.0   NNE    4.0    5.7    3.6  1037.1  0.00  0.00   0.043   0.000   22.1    39    7.5   20.9   7.61  .0757    117    1    100.0    5 
18/01/17  14:50    5.9    6.1    5.9    66    0.1   6.0   NNE   0.50  11.0     N    3.8    5.6    3.4  1037.1  0.00  0.00   0.043   0.000   22.1    39    7.5   20.9   7.62  .0757    117    1    100.0    5 
18/01/17  14:55    5.8    5.9    5.8    67    0.2   5.0   NNE   0.42   9.0   NNE    4.1    5.4    3.7  1037.2  0.00  0.00   0.043   0.000   22.1    39    7.5   20.9   7.62  .0757    117    1    100.0    5 
18/01/17  15:00    5.8    5.9    5.8    67    0.2   4.0   NNE   0.33   7.0   NNE    4.6    5.4    4.2  1037.1  0.00  0.00   0.043   0.000   22.0    39    7.4   20.8   7.62  .0757    117    1    100.0    5 
18/01/17  15:05    5.8    5.8    5.8    67    0.2   3.0   NNE   0.25   7.0   NNE    5.1    5.4    4.7  1037.1  0.00  0.00   0.043   0.000   22.0    39    7.4   20.8   7.62  .0757    116    1    100.0    5 
18/01/17  15:10    5.8    5.8    5.8    68    0.3   3.0    NE   0.25   8.0   NNE    5.1    5.4    4.7  1037.1  0.00  0.00   0.044   0.000   22.0    39    7.4   20.8   7.62  .0757    118    1    100.0    5 
18/01/17  15:15    5.8    5.8    5.8    68    0.3   2.0    NE   0.17   4.0    NE    5.8    5.4    5.4  1037.1  0.00  0.00   0.044   0.000   22.0    39    7.4   20.8   7.62  .0757    117    1    100.0    5 
18/01/17  15:20    5.7    5.8    5.7    68    0.2   3.0   NNE   0.25   7.0   NNE    4.9    5.3    4.6  1037.2  0.00  0.00   0.044   0.000   21.9    39    7.4   20.7   7.62  .0757    116    1    100.0    5 
18/01/17  15:25    5.6    5.7    5.6    69    0.3   3.0   NNE   0.25   5.0   NNE    4.8    5.2    4.4  1037.2  0.00  0.00   0.044   0.000   21.9    39    7.4   20.7   7.62  .0757    117    1    100.0    5 
18/01/17  15:30    5.4    5.6    5.4    69    0.2   3.0   NNE   0.25   6.0   NNE    4.7    5.1    4.3  1037.1  0.00  0.00   0.045   0.000   21.9    39    7.4   20.7   7.62  .0757    116    1    100.0    5 
18/01/17  15:35    5.2    5.4    5.2    69   -0.1   2.0   NNE   0.17   4.0   NNE    5.1    4.8    4.8  1037.0  0.00  0.00   0.046   0.000   21.9    39    7.4   20.7   7.62  .0757    115    1    100.0    5 
18/01/17  15:40    4.9    5.2    4.9    70   -0.1   1.0   NNE   0.08   4.0   NNE    4.9    4.6    4.6  1037.0  0.00  0.00   0.046   0.000   21.9    39    7.4   20.7   7.62  .0757    117    1    100.0    5 
18/01/17  15:45    4.7    4.9    4.7    70   -0.3   2.0   NNE   0.17   4.0   NNE    4.6    4.4    4.3  1036.9  0.00  0.00   0.047   0.000   21.9    39    7.4   20.7   7.62  .0757    117    1    100.0    5 
18/01/17  15:50    4.5    4.7    4.5    71   -0.3   1.0   NNE   0.08   4.0   NNE    4.5    4.2    4.2  1036.9  0.00  0.00   0.048   0.000   21.9    39    7.4   20.7   7.62  .0757    116    1    100.0    5 
18/01/17  15:55    4.2    4.5    4.2    72   -0.4   1.0   NNE   0.08   3.0   NNE    4.2    3.9    3.9  1036.9  0.00  0.00   0.049   0.000   21.9    39    7.3   20.6   7.62  .0757    117    1    100.0    5 
18/01/17  16:00    4.0    4.2    4.0    72   -0.6   1.0   NNE   0.08   4.0   NNE    4.0    3.7    3.7  1037.0  0.00  0.00   0.050   0.000   21.9    39    7.3   20.6   7.62  .0757    116    1    100.0    5 
18/01/17  16:05    3.8    3.9    3.8    73   -0.6   0.0   ---   0.00   0.0   ---    3.8    3.5    3.5  1037.0  0.00  0.00   0.051   0.000   21.9    39    7.3   20.6   7.62  .0757    116    1    100.0    5 
18/01/17  16:10    3.6    3.8    3.6    73   -0.8   0.0   NNE   0.00   4.0   NNE    3.6    3.3    3.3  1037.0  0.00  0.00   0.051   0.000   21.9    39    7.3   20.6   7.62  .0757    117    1    100.0    5 
18/01/17  16:15    3.4    3.6    3.4    74   -0.8   1.0   NNE   0.08   4.0   NNE    3.4    3.2    3.2  1037.0  0.00  0.00   0.052   0.000   21.9    39    7.3   20.6   7.62  .0757    118    1    100.0    5 
18/01/17  16:20    3.2    3.4    3.2    74   -1.0   2.0   NNE   0.17   4.0   NNE    2.9    3.0    2.7  1036.9  0.00  0.00   0.052   0.000   21.8    39    7.3   20.6   7.62  .0757    117    1    100.0    5 
18/01/17  16:25    3.1    3.2    3.1    75   -0.9   0.0   NNE   0.00   2.0   NNE    3.1    2.8    2.8  1036.9  0.00  0.00   0.053   0.000   21.8    39    7.3   20.6   7.62  .0757    116    1    100.0    5 
18/01/17  16:30    2.9    3.1    2.9    75   -1.1   1.0   NNE   0.08   6.0   NNE    2.9    2.7    2.7  1036.8  0.00  0.00   0.053   0.000   21.8    39    7.3   20.6   7.62  .0757    117    1    100.0    5 
18/01/17  16:35    2.8    2.9    2.8    76   -1.0   3.0   NNE   0.25   6.0    NE    1.7    2.6    1.4  1036.7  0.00  0.00   0.054   0.000   21.8    39    7.3   20.6   7.62  .0757    117    1    100.0    5 
18/01/17  16:40    2.7    2.8    2.7    76   -1.1   4.0   NNE   0.33   7.0   NNE    0.9    2.4    0.7  1036.7  0.00  0.00   0.054   0.000   21.8    40    7.6   20.6   7.72  .0757    117    1    100.0    5 
18/01/17  16:45    2.6    2.7    2.6    76   -1.3   2.0   NNE   0.17   4.0   NNE    2.2    2.3    2.0  1036.7  0.00  0.00   0.055   0.000   21.8    40    7.6   20.6   7.72  .0757    117    1    100.0    5 
18/01/17  16:50    2.4    2.6    2.4    77   -1.2   3.0   NNE   0.25   6.0   NNE    1.3    2.2    1.1  1036.7  0.00  0.00   0.055   0.000   21.9    40    7.7   20.7   7.72  .0757    116    1    100.0    5 
18/01/17  16:55    2.3    2.4    2.3    77   -1.3   4.0   NNE   0.33   6.0   NNE    0.5    2.1    0.3  1036.7  0.00  0.00   0.056   0.000   21.9    40    7.7   20.7   7.72  .0757    117    1    100.0    5 
18/01/17  17:00    2.2    2.3    2.2    78   -1.2   5.0   NNE   0.42   7.0   NNE   -0.1    2.1   -0.3  1036.7  0.00  0.00   0.056   0.000   21.9    40    7.7   20.7   7.72  .0757    115    1    100.0    5 
18/01/17  17:05    2.2    2.2    2.2    78   -1.3   4.0   NNE   0.33   7.0   NNE    0.3    2.0    0.2  1036.7  0.00  0.00   0.056   0.000   21.9    40    7.7   20.7   7.72  .0757    117    1    100.0    5 
18/01/17  17:10    2.2    2.2    2.2    78   -1.3   5.0   NNE   0.42   7.0   NNE   -0.2    2.0   -0.3  1036.6  0.00  0.00   0.056   0.000   21.9    40    7.7   20.7   7.72  .0757    115    1    100.0    5 
18/01/17  17:15    2.1    2.2    2.1    78   -1.3   5.0   NNE   0.42   7.0   NNE   -0.3    1.9   -0.4  1036.7  0.00  0.00   0.056   0.000   21.9    40    7.7   20.7   7.72  .0757    117    1    100.0    5 
18/01/17  17:20    2.1    2.2    2.1    79   -1.2   4.0   NNE   0.33   7.0   NNE    0.2    1.9    0.1  1036.7  0.00  0.00   0.057   0.000   21.9    40    7.7   20.7   7.72  .0757    118    1    100.0    5 
18/01/17  17:25    2.0    2.1    2.0    79   -1.3   4.0   NNE   0.33   8.0   NNE    0.1    1.8   -0.1  1036.7  0.00  0.00   0.057   0.000   21.9    40    7.7   20.7   7.72  .0757    117    1    100.0    5 
18/01/17  17:30    2.0    2.1    2.0    79   -1.3   4.0   NNE   0.33  10.0   NNE    0.1    1.8   -0.1  1036.7  0.00  0.00   0.057   0.000   21.9    40    7.7   20.7   7.72  .0757    117    1    100.0    5 
18/01/17  17:35    1.9    2.0    1.9    79   -1.3   5.0   NNE   0.42   7.0   NNE   -0.4    1.8   -0.6  1036.7  0.00  0.00   0.057   0.000   21.9    40    7.7   20.7   7.72  .0757    116    1    100.0    5 
18/01/17  17:40    1.9    1.9    1.9    79   -1.3   5.0   NNE   0.42   8.0   NNE   -0.4    1.8   -0.6  1036.8  0.00  0.00   0.057   0.000   21.9    40    7.7   20.7   7.72  .0757    116    1    100.0    5 
18/01/17  17:45    1.9    1.9    1.9    79   -1.3   6.0   NNE   0.50   9.0   NNE   -0.9    1.8   -1.1  1036.8  0.00  0.00   0.057   0.000   22.0    40    7.8   20.8   7.72  .0757    117    1    100.0    5 
18/01/17  17:50    1.9    1.9    1.9    80   -1.2   5.0   NNE   0.42   8.0   NNE   -0.5    1.7   -0.7  1036.7  0.00  0.00   0.057   0.000   22.0    40    7.8   20.8   7.72  .0757    115    1    100.0    5 
18/01/17  17:55    1.8    1.9    1.8    80   -1.3   4.0   NNE   0.33   7.0   NNE   -0.1    1.7   -0.2  1036.8  0.00  0.00   0.057   0.000   22.0    40    7.8   20.8   7.72  .0757    116    1    100.0    5 
18/01/17  18:00    1.8    1.9    1.8    80   -1.3   4.0   NNE   0.33   7.0   NNE   -0.1    1.7   -0.2  1036.7  0.00  0.00   0.057   0.000   22.1    40    7.8   20.9   7.72  .0756    117    1    100.0    5 
18/01/17  18:05    1.8    1.8    1.8    80   -1.3   4.0   NNE   0.33   6.0   NNE   -0.1    1.7   -0.2  1036.8  0.00  0.00   0.057   0.000   22.1    39    7.5   20.9   7.62  .0757    117    1    100.0    5 
18/01/17  18:10    1.8    1.8    1.8    80   -1.3   5.0   NNE   0.42   8.0   NNE   -0.7    1.6   -0.8  1036.8  0.00  0.00   0.057   0.000   22.1    39    7.5   20.9   7.61  .0756    116    1    100.0    5 
18/01/17  18:15    1.8    1.8    1.8    80   -1.3   5.0   NNE   0.42   7.0   NNE   -0.7    1.6   -0.8  1036.8  0.00  0.00   0.057   0.000   22.1    39    7.5   20.9   7.61  .0756    116    1    100.0    5 
18/01/17  18:20    1.8    1.8    1.7    80   -1.3   4.0   NNE   0.33   6.0   NNE   -0.1    1.6   -0.3  1036.8  0.00  0.00   0.057   0.000   22.1    39    7.5   20.9   7.61  .0756    115    1    100.0    5 
18/01/17  18:25    1.7    1.8    1.7    80   -1.4   5.0   NNE   0.42   8.0   NNE   -0.7    1.6   -0.9  1036.9  0.00  0.00   0.058   0.000   22.1    39    7.5   20.9   7.61  .0757    118    1    100.0    5 
18/01/17  18:30    1.8    1.8    1.7    80   -1.3   4.0   NNE   0.33   7.0     N   -0.1    1.6   -0.3  1037.0  0.00  0.00   0.057   0.000   22.2    39    7.6   21.1   7.61  .0756    117    1    100.0    5 
18/01/17  18:35    1.7    1.8    1.7    80   -1.4   4.0   NNE   0.33   6.0   NNE   -0.2    1.6   -0.3  1037.0  0.00  0.00   0.058   0.000   22.2    39    7.6   21.1   7.61  .0756    117    1    100.0    5 
18/01/17  18:40    1.7    1.7    1.7    81   -1.2   2.0   NNE   0.17   5.0   NNE    1.3    1.6    1.2  1037.1  0.00  0.00   0.058   0.000   22.2    39    7.6   21.1   7.61  .0756    117    1    100.0    5 
18/01/17  18:45    1.7    1.7    1.7    81   -1.2   3.0   NNE   0.25   5.0   NNE    0.4    1.5    0.2  1037.0  0.00  0.00   0.058   0.000   22.2    39    7.6   21.1   7.61  .0756    115    1    100.0    5 
18/01/17  18:50    1.7    1.7    1.7    81   -1.2   3.0   NNE   0.25   5.0   NNE    0.4    1.5    0.2  1037.0  0.00  0.00   0.058   0.000   22.2    39    7.6   21.1   7.61  .0756    117    1    100.0    5 
18/01/17  18:55    1.7    1.7    1.6    81   -1.2   2.0    NE   0.17   7.0    NE    1.3    1.5    1.1  1036.9  0.00  0.00   0.058   0.000   22.2    39    7.6   21.1   7.61  .0756    117    1    100.0    5 
18/01/17  19:00    1.6    1.7    1.6    81   -1.3   2.0    NE   0.17   5.0    NE    1.2    1.4    1.1  1037.0  0.00  0.00   0.058   0.000   22.2    39    7.6   21.1   7.61  .0756    117    1    100.0    5 
18/01/17  19:05    1.6    1.7    1.6    81   -1.3   3.0    NE   0.25   7.0    NE    0.3    1.4    0.2  1036.9  0.00  0.00   0.058   0.000   22.2    39    7.6   21.1   7.61  .0756    117    1    100.0    5 
18/01/17  19:10    1.6    1.6    1.6    81   -1.3   2.0    NE   0.17   5.0    NE    1.2    1.4    1.1  1037.0  0.00  0.00   0.058   0.000   22.2    39    7.6   21.1   7.61  .0756    116    1    100.0    5 
18/01/17  19:15    1.6    1.6    1.6    81   -1.4   2.0    NE   0.17   5.0    NE    1.1    1.4    0.9  1036.9  0.00  0.00   0.058   0.000   22.3    39    7.6   21.2   7.61  .0756    117    1    100.0    5 
18/01/17  19:20    1.6    1.6    1.6    81   -1.4   3.0    NE   0.25   6.0   NNE    0.3    1.4    0.1  1036.9  0.00  0.00   0.058   0.000   22.3    39    7.6   21.2   7.61  .0756    116    1    100.0    5 
18/01/17  19:25    1.5    1.6    1.5    81   -1.4   3.0   NNE   0.25   6.0   NNE    0.2    1.3    0.1  1036.9  0.00  0.00   0.058   0.000   22.3    39    7.6   21.2   7.61  .0756    117    1    100.0    5 
18/01/17  19:30    1.5    1.5    1.5    81   -1.4   2.0   NNE   0.17   4.0   NNE    1.1    1.3    0.9  1036.9  0.00  0.00   0.058   0.000   22.3    39    7.6   21.2   7.61  .0756    115    1    100.0    5 
18/01/17  19:35    1.4    1.5    1.4    82   -1.3   4.0   NNE   0.33   8.0   NNE   -0.5    1.3   -0.7  1036.9  0.00  0.00   0.059   0.000   22.3    39    7.7   21.3   7.61  .0756    117    1    100.0    5 
18/01/17  19:40    1.4    1.4    1.4    82   -1.3   4.0   NNE   0.33   6.0   NNE   -0.5    1.3   -0.7  1037.0  0.00  0.00   0.059   0.000   22.3    39    7.7   21.3   7.61  .0756    116    1    100.0    5 
18/01/17  19:45    1.4    1.4    1.4    82   -1.3   5.0   NNE   0.42   8.0     N   -1.1    1.3   -1.2  1036.9  0.00  0.00   0.059   0.000   22.3    39    7.7   21.3   7.61  .0756    117    1    100.0    5 
18/01/17  19:50    1.4    1.4    1.4    82   -1.3   5.0   NNE   0.42   9.0   NNE   -1.1    1.2   -1.3  1036.8  0.00  0.00   0.059   0.000   22.4    39    7.7   21.4   7.60  .0756    117    1    100.0    5 
18/01/17  19:55    1.4    1.4    1.4    82   -1.3   5.0   NNE   0.42   9.0    NE   -1.1    1.2   -1.3  1036.8  0.00  0.00   0.059   0.000   22.4    39    7.7   21.4   7.60  .0756    117    1    100.0    5 
18/01/17  20:00    1.4    1.4    1.4    82   -1.3   5.0   NNE   0.42   8.0   NNE   -1.1    1.3   -1.2  1036.8  0.00  0.00   0.059   0.000   22.4    39    7.7   21.4   7.60  .0756    117    1    100.0    5 
18/01/17  20:05    1.4    1.4    1.4    83   -1.2   5.0   NNE   0.42   8.0    NE   -1.1    1.2   -1.3  1036.8  0.00  0.00   0.059   0.000   22.4    39    7.7   21.4   7.60  .0756    117    1    100.0    5 
18/01/17  20:10    1.4    1.4    1.4    83   -1.2   6.0   NNE   0.50   9.0   NNE   -1.6    1.2   -1.7  1036.7  0.00  0.00   0.059   0.000   22.4    39    7.7   21.4   7.60  .0755    117    1    100.0    5 
18/01/17  20:15    1.4    1.4    1.4    83   -1.1   6.0   NNE   0.50  11.0   NNE   -1.5    1.3   -1.7  1036.7  0.00  0.00   0.059   0.000   22.4    39    7.8   21.4   7.60  .0755    117    1    100.0    5 
18/01/17  20:20    1.4    1.4    1.4    83   -1.1   5.0    NE   0.42  10.0    NE   -1.1    1.3   -1.2  1036.6  0.00  0.00   0.059   0.000   22.4    39    7.8   21.4   7.60  .0755    117    1    100.0    5 
18/01/17  20:25    1.5    1.5    1.4    83   -1.1   4.0    NE   0.33   8.0    NE   -0.4    1.3   -0.6  1036.6  0.00  0.00   0.058   0.000   22.4    39    7.8   21.4   7.60  .0755    117    1    100.0    5 
18/01/17  20:30    1.5    1.5    1.5    83   -1.1   3.0    NE   0.25   9.0    NE    0.2    1.3    0.1  1036.6  0.00  0.00   0.058   0.000   22.4    39    7.8   21.4   7.60  .0755    116    1    100.0    5 
18/01/17  20:35    1.5    1.6    1.5    83   -1.1   3.0    NE   0.25   7.0    NE    0.2    1.3    0.1  1036.5  0.00  0.00   0.058   0.000   22.5    38    7.5   21.5   7.45  .0755    118    1    100.0    5 
18/01/17  20:40    1.5    1.5    1.5    83   -1.1   2.0    NE   0.17   5.0   NNE    1.1    1.3    0.9  1036.5  0.00  0.00   0.058   0.000   22.5    39    7.8   21.6   7.60  .0755    116    1    100.0    5 
18/01/17  20:45    1.4    1.5    1.4    83   -1.1   2.0    NE   0.17   5.0    NE    1.0    1.3    0.8  1036.5  0.00  0.00   0.059   0.000   22.5    38    7.5   21.5   7.45  .0755    117    1    100.0    5 
18/01/17  20:50    1.4    1.5    1.4    83   -1.1   4.0    NE   0.33  10.0    NE   -0.5    1.3   -0.7  1036.5  0.00  0.00   0.059   0.000   22.5    38    7.5   21.5   7.45  .0755    117    1    100.0    5 
18/01/17  20:55    1.5    1.5    1.4    83   -1.1   4.0    NE   0.33   8.0    NE   -0.4    1.3   -0.6  1036.5  0.00  0.00   0.058   0.000   22.6    38    7.5   21.6   7.45  .0755    116    1    100.0    5 
18/01/17  21:00    1.6    1.6    1.5    83   -1.0   4.0    NE   0.33   9.0    NE   -0.4    1.4   -0.6  1036.5  0.00  0.00   0.058   0.000   22.6    38    7.5   21.6   7.45  .0755    117    1    100.0    5 
18/01/17  21:05    1.6    1.6    1.6    83   -1.0   4.0   NNE   0.33   9.0   ENE   -0.3    1.5   -0.4  1036.5  0.00  0.00   0.058   0.000   22.6    38    7.6   21.7   7.44  .0755    115    1    100.0    5 
18/01/17  21:10    1.7    1.7    1.6    83   -0.9   5.0    NE   0.42  10.0    NE   -0.8    1.6   -0.9  1036.4  0.00  0.00   0.058   0.000   22.6    38    7.6   21.7   7.44  .0755    116    1    100.0    5 
18/01/17  21:15    1.7    1.7    1.7    83   -0.9   4.0   NNE   0.33   9.0   ENE   -0.3    1.6   -0.4  1036.5  0.00  0.00   0.058   0.000   22.6    38    7.6   21.7   7.44  .0755    117    1    100.0    5 
18/01/17  21:20    1.7    1.7    1.7    83   -0.9   4.0    NE   0.33   9.0   NNE   -0.2    1.6   -0.3  1036.5  0.00  0.00   0.058   0.000   22.6    38    7.6   21.7   7.44  .0755    117    1    100.0    5 
18/01/17  21:25    1.7    1.7    1.7    83   -0.9   4.0   NNE   0.33   8.0   NNE   -0.2    1.6   -0.3  1036.6  0.00  0.00   0.058   0.000   22.6    38    7.5   21.6   7.45  .0755    117    1    100.0    5 
18/01/17  21:30    1.7    1.8    1.7    84   -0.7   5.0   NNE   0.42  10.0   NNE   -0.7    1.6   -0.8  1036.5  0.00  0.00   0.058   0.000   22.6    38    7.5   21.6   7.45  .0755    117    1    100.0    5 
18/01/17  21:35    1.8    1.8    1.7    84   -0.6   4.0    NE   0.33   8.0   NNE   -0.1    1.7   -0.2  1036.5  0.00  0.00   0.057   0.000   22.6    38    7.5   21.6   7.45  .0755    116    1    100.0    5 
18/01/17  21:40    1.7    1.8    1.7    84   -0.7   2.0   NNE   0.17   6.0   NNE    1.3    1.6    1.2  1036.5  0.00  0.00   0.058   0.000   22.6    38    7.5   21.6   7.45  .0755    118    1    100.0    5 
18/01/17  21:45    1.7    1.8    1.7    84   -0.7   1.0   NNE   0.08   4.0   NNE    1.7    1.6    1.6  1036.5  0.00  0.00   0.058   0.000   22.6    38    7.5   21.6   7.45  .0755    117    1    100.0    5 
18/01/17  21:50    1.7    1.7    1.7    84   -0.7   0.0   NNE   0.00   3.0   NNE    1.7    1.6    1.6  1036.6  0.00  0.00   0.058   0.000   22.5    38    7.5   21.5   7.45  .0755    117    1    100.0    5 
18/01/17  21:55    1.7    1.8    1.7    84   -0.7   0.0   NNE   0.00   3.0   NNE    1.7    1.6    1.6  1036.5  0.00  0.00   0.058   0.000   22.5    38    7.5   21.5   7.45  .0755    116    1    100.0    5 
18/01/17  22:00    1.7    1.7    1.7    84   -0.7   1.0   NNE   0.08   5.0   NNE    1.7    1.6    1.6  1036.6  0.00  0.00   0.058   0.000   22.5    38    7.5   21.5   7.45  .0755    117    1    100.0    5 
18/01/17  22:05    1.7    1.7    1.7    84   -0.7   1.0   NNE   0.08   3.0   NNE    1.7    1.6    1.6  1036.5  0.00  0.00   0.058   0.000   22.5    38    7.5   21.5   7.45  .0755    116    1    100.0    5 
18/01/17  22:10    1.7    1.7    1.7    84   -0.7   1.0   NNE   0.08   4.0   NNE    1.7    1.6    1.6  1036.5  0.00  0.00   0.058   0.000   22.4    38    7.4   21.4   7.45  .0755    117    1    100.0    5 
18/01/17  22:15    1.7    1.7    1.7    84   -0.7   0.0   NNE   0.00   4.0   NNE    1.7    1.6    1.6  1036.6  0.00  0.00   0.058   0.000   22.4    38    7.4   21.4   7.45  .0755    117    1    100.0    5 
18/01/17  22:20    1.7    1.7    1.7    84   -0.7   0.0   NNE   0.00   3.0   NNE    1.7    1.6    1.6  1036.6  0.00  0.00   0.058   0.000   22.4    38    7.4   21.4   7.45  .0755    116    1    100.0    5 
18/01/17  22:25    1.7    1.7    1.7    84   -0.7   1.0   NNE   0.08   4.0   NNE    1.7    1.6    1.6  1036.6  0.00  0.00   0.058   0.000   22.4    38    7.4   21.3   7.46  .0756    116    1    100.0    5 
18/01/17  22:30    1.6    1.7    1.6    84   -0.8   1.0   NNE   0.08   4.0   NNE    1.6    1.5    1.5  1036.6  0.00  0.00   0.058   0.000   22.4    39    7.7   21.4   7.60  .0755    116    1    100.0    5 
18/01/17  22:35    1.6    1.6    1.6    84   -0.9   3.0   NNE   0.25   4.0   NNE    0.3    1.4    0.2  1036.6  0.00  0.00   0.058   0.000   22.4    39    7.8   21.4   7.60  .0755    117    1    100.0    5 
18/01/17  22:40    1.4    1.6    1.4    84   -1.0   3.0   NNE   0.25   5.0   NNE    0.2    1.3    0.0  1036.6  0.00  0.00   0.059   0.000   22.4    39    7.8   21.4   7.60  .0755    114    1    100.0    5 
18/01/17  22:45    1.3    1.4    1.3    84   -1.1   3.0   NNE   0.25   5.0   NNE    0.0    1.2   -0.2  1036.6  0.00  0.00   0.059   0.000   22.5    39    7.8   21.6   7.60  .0755    117    1    100.0    5 
18/01/17  22:50    1.3    1.3    1.3    84   -1.1   4.0   NNE   0.33   6.0   NNE   -0.7    1.1   -0.9  1036.6  0.00  0.00   0.059   0.000   22.4    39    7.8   21.4   7.60  .0755    117    1    100.0    5 
18/01/17  22:55    1.2    1.3    1.2    84   -1.2   4.0   NNE   0.33   6.0   NNE   -0.8    1.0   -1.0  1036.6  0.00  0.00   0.060   0.000   22.4    39    7.8   21.4   7.60  .0755    117    1    100.0    5 
18/01/17  23:00    1.1    1.2    1.1    85   -1.1   4.0   NNE   0.33   6.0   NNE   -0.9    0.9   -1.1  1036.5  0.00  0.00   0.060   0.000   22.4    39    7.8   21.4   7.60  .0755    116    1    100.0    5 
18/01/17  23:05    1.0    1.1    1.0    85   -1.2   4.0   NNE   0.33   6.0   NNE   -1.0    0.8   -1.2  1036.5  0.00  0.00   0.060   0.000   22.4    38    7.4   21.4   7.45  .0755    117    1    100.0    5 
18/01/17  23:10    0.9    1.0    0.9    85   -1.3   3.0   NNE   0.25   6.0   NNE   -0.4    0.8   -0.6  1036.5  0.00  0.00   0.060   0.000   22.4    38    7.4   21.4   7.45  .0755    116    1    100.0    5 
18/01/17  23:15    0.9    0.9    0.9    85   -1.3   2.0   NNE   0.17   5.0   NNE    0.4    0.8    0.3  1036.5  0.00  0.00   0.060   0.000   22.4    38    7.4   21.3   7.46  .0756    116    1    100.0    5 
18/01/17  23:20    0.9    0.9    0.9    85   -1.3   3.0   NNE   0.25   5.0   NNE   -0.5    0.7   -0.7  1036.5  0.00  0.00   0.061   0.000   22.4    38    7.4   21.3   7.46  .0756    116    1    100.0    5 
18/01/17  23:25    0.8    0.9    0.8    86   -1.2   3.0   NNE   0.25   5.0   NNE   -0.6    0.7   -0.7  1036.5  0.00  0.00   0.061   0.000   22.3    38    7.3   21.2   7.46  .0756    117    1    100.0    5 
18/01/17  23:30    0.8    0.8    0.8    86   -1.3   2.0   NNE   0.17   5.0   NNE    0.3    0.7    0.2  1036.4  0.00  0.00   0.061   0.000   22.3    38    7.3   21.2   7.47  .0756    116    1    100.0    5 
18/01/17  23:35    0.8    0.8    0.8    86   -1.3   3.0   NNE   0.25   6.0   NNE   -0.6    0.7   -0.7  1036.4  0.00  0.00   0.061   0.000   22.2    38    7.2   21.1   7.47  .0756    116    1    100.0    5 
18/01/17  23:40    0.7    0.8    0.7    86   -1.4   4.0   NNE   0.33   6.0   NNE   -1.3    0.6   -1.4  1036.4  0.00  0.00   0.061   0.000   22.2    38    7.2   21.1   7.47  .0756    115    1    100.0    5 
18/01/17  23:45    0.7    0.7    0.7    86   -1.4   4.0   NNE   0.33   8.0    NE   -1.3    0.6   -1.4  1036.5  0.00  0.00   0.061   0.000   22.2    37    6.8   20.9   7.31  .0756    116    1    100.0    5 
18/01/17  23:50    0.7    0.7    0.7    86   -1.4   4.0   NNE   0.33   7.0    NE   -1.3    0.6   -1.4  1036.4  0.00  0.00   0.061   0.000   22.1    37    6.7   20.8   7.31  .0757    117    1    100.0    5 
18/01/17  23:55    0.8    0.8    0.7    86   -1.3   5.0   NNE   0.42   8.0   NNE   -1.8    0.7   -1.9  1036.4  0.00  0.00   0.061   0.000   22.1    37    6.7   20.8   7.32  .0757    117    1    100.0    5 
19/01/17  00:00    0.8    0.8    0.8    86   -1.2   4.0   NNE   0.33   7.0   NNE   -1.2    0.7   -1.3  1036.4  0.00  0.00   0.061   0.000   22.1    37    6.7   20.8   7.32  .0757    117    1    100.0    5 
19/01/17   0:05    0.8    0.8    0.8    86   -1.3   4.0   NNE   0.33   7.0   NNE   -1.3    0.7   -1.4  1036.6  0.00  0.00   0.061   0.000   22.0    37    6.6   20.7   7.32  .0757    114    1    100.0    5 
19/01/17   0:10    0.8    0.8    0.8    87   -1.1   4.0   NNE   0.33   5.0   NNE   -1.3    0.7   -1.4  1036.5  0.00  0.00   0.061   0.000   21.9    37    6.6   20.6   7.32  .0757    116    1    100.0    5 
19/01/17   0:15    0.7    0.8    0.7    86   -1.4   2.0   NNE   0.17   4.0   NNE    0.2    0.6    0.1  1036.6  0.00  0.00   0.061   0.000   21.9    37    6.5   20.5   7.32  .0757    117    1    100.0    5 
19/01/17   0:20    0.7    0.7    0.6    86   -1.4   3.0   NNE   0.25   5.0   NNE   -0.7    0.6   -0.8  1036.6  0.00  0.00   0.061   0.000   21.9    37    6.5   20.5   7.32  .0757    117    1    100.0    5 
19/01/17   0:25    0.6    0.7    0.6    87   -1.4   4.0   NNE   0.33   5.0   NNE   -1.6    0.4   -1.7  1036.6  0.00  0.00   0.062   0.000   21.8    37    6.5   20.4   7.32  .0758    115    1    100.0    5 
19/01/17   0:30    0.5    0.6    0.5    87   -1.4   5.0   NNE   0.42   6.0   NNE   -2.2    0.4   -2.3  1036.7  0.00  0.00   0.062   0.000   21.8    37    6.4   20.3   7.33  .0758    116    1    100.0    5 
19/01/17   0:35    0.4    0.5    0.4    87   -1.5   5.0   NNE   0.42   7.0   NNE   -2.2    0.3   -2.3  1036.6  0.00  0.00   0.062   0.000   21.8    37    6.4   20.3   7.33  .0758    117    1    100.0    5 
19/01/17   0:40    0.4    0.5    0.4    88   -1.3   5.0   NNE   0.42   7.0   NNE   -2.2    0.3   -2.3  1036.6  0.00  0.00   0.062   0.000   21.7    37    6.4   20.3   7.33  .0758    116    1    100.0    5 
19/01/17   0:45    0.4    0.5    0.4    88   -1.3   4.0   NNE   0.33   7.0   NNE   -1.7    0.3   -1.8  1036.6  0.00  0.00   0.062   0.000   21.7    37    6.3   20.2   7.33  .0758    117    1    100.0    5 
19/01/17   0:50    0.4    0.4    0.4    88   -1.3   5.0   NNE   0.42   7.0   NNE   -2.2    0.3   -2.3  1036.5  0.00  0.00   0.062   0.000   21.7    37    6.3   20.2   7.33  .0758    116    1    100.0    5 
19/01/17   0:55    0.4    0.4    0.4    88   -1.3   6.0   NNE   0.50   8.0   NNE   -2.7    0.3   -2.8  1036.5  0.00  0.00   0.062   0.000   21.6    37    6.3   20.1   7.33  .0758    116    1    100.0    5 
19/01/17   1:00    0.4    0.4    0.4    89   -1.2   6.0   NNE   0.50   8.0   NNE   -2.7    0.3   -2.8  1036.4  0.00  0.00   0.062   0.000   21.6    37    6.2   20.1   7.33  .0758    117    1    100.0    5 
19/01/17   1:05    0.4    0.4    0.4    89   -1.2   5.0   NNE   0.42   8.0   NNE   -2.2    0.3   -2.3  1036.4  0.00  0.00   0.062   0.000   21.5    37    6.2   20.0   7.34  .0758    117    1    100.0    5 
19/01/17   1:10    0.4    0.4    0.4    89   -1.2   5.0   NNE   0.42   7.0   NNE   -2.2    0.3   -2.3  1036.4  0.00  0.00   0.062   0.000   21.5    37    6.2   20.0   7.34  .0758    116    1    100.0    5 
19/01/17   1:15    0.3    0.4    0.3    89   -1.3   6.0   NNE   0.50   9.0   NNE   -2.8    0.2   -2.9  1036.4  0.00  0.00   0.063   0.000   21.5    37    6.2   20.0   7.34  .0758    117    1    100.0    5 
19/01/17   1:20    0.4    0.4    0.3    89   -1.2   7.0   NNE   0.58   9.0   NNE   -3.2    0.3   -3.3  1036.3  0.00  0.00   0.062   0.000   21.4    37    6.1   19.8   7.34  .0759    118    1    100.0    5 
19/01/17   1:25    0.4    0.4    0.4    89   -1.2   5.0   NNE   0.42   8.0   NNE   -2.2    0.3   -2.3  1036.3  0.00  0.00   0.062   0.000   21.4    37    6.1   19.8   7.34  .0759    117    1    100.0    5 
19/01/17   1:30    0.5    0.5    0.4    89   -1.1   5.0   NNE   0.42   7.0   NNE   -2.2    0.4   -2.3  1036.4  0.00  0.00   0.062   0.000   21.3    37    6.0   19.8   7.34  .0759    117    1    100.0    5 
19/01/17   1:35    0.5    0.5    0.4    89   -1.1   4.0   NNE   0.33   6.0   NNE   -1.6    0.4   -1.7  1036.4  0.00  0.00   0.062   0.000   21.3    37    6.0   19.7   7.34  .0759    116    1    100.0    5 
19/01/17   1:40    0.4    0.5    0.4    89   -1.2   3.0   NNE   0.25   5.0   NNE   -1.0    0.3   -1.1  1036.3  0.00  0.00   0.062   0.000   21.2    35    5.1   19.6   7.05  .0760    113    1     99.1    5 
19/01/17   1:45    0.4    0.4    0.4    89   -1.2   3.0   NNE   0.25   5.0   NNE   -1.1    0.3   -1.2  1036.3  0.00  0.00   0.062   0.000   21.1    35    5.0   19.4   7.05  .0760    117    1    100.0    5 
19/01/17   1:50    0.4    0.4    0.4    89   -1.2   1.0   NNE   0.08   3.0   NNE    0.4    0.3    0.3  1036.4  0.00  0.00   0.062   0.000   20.9    35    4.9   19.2   7.05  .0760    116    1    100.0    5 
19/01/17   1:55    0.4    0.4    0.3    90   -1.1   1.0   NNE   0.08   3.0   NNE    0.4    0.3    0.3  1036.4  0.00  0.00   0.062   0.000   20.9    35    4.8   19.2   7.05  .0761    116    1    100.0    5 
19/01/17   2:00    0.3    0.4    0.3    90   -1.1   1.0   NNE   0.08   5.0   NNE    0.3    0.2    0.2  1036.4  0.00  0.00   0.063   0.000   20.8    35    4.7   19.1   7.05  .0761    117    1    100.0    5 
19/01/17   2:05    0.3    0.3    0.3    90   -1.1   0.0   ---   0.00   0.0   ---    0.3    0.2    0.2  1036.3  0.00  0.00   0.063   0.000   20.7    35    4.6   19.0   7.05  .0761    116    1    100.0    5 
19/01/17   2:10    0.3    0.3    0.3    90   -1.1   0.0   NNE   0.00   2.0   NNE    0.3    0.2    0.2  1036.4  0.00  0.00   0.063   0.000   20.6    35    4.6   18.9   7.05  .0761    116    1    100.0    5 
19/01/17   2:15    0.3    0.3    0.3    90   -1.2   0.0   ---   0.00   0.0   ---    0.3    0.2    0.2  1036.4  0.00  0.00   0.063   0.000   20.5    35    4.5   18.8   7.05  .0762    116    1    100.0    5 
19/01/17   2:20    0.3    0.3    0.3    90   -1.2   0.0   ---   0.00   0.0   ---    0.3    0.2    0.2  1036.4  0.00  0.00   0.063   0.000   20.4    35    4.5   18.8   7.05  .0762    117    1    100.0    5 
19/01/17   2:25    0.3    0.3    0.3    90   -1.2   0.0   ---   0.00   0.0   ---    0.3    0.2    0.2  1036.3  0.00  0.00   0.063   0.000   20.4    35    4.4   18.7   7.05  .0762    118    1    100.0    5 
19/01/17   2:30    0.2    0.3    0.2    90   -1.2   0.0   ---   0.00   0.0   ---    0.2    0.2    0.2  1036.3  0.00  0.00   0.063   0.000   20.3    35    4.3   18.6   7.05  .0762    117    1    100.0    5 
19/01/17   2:35    0.2    0.3    0.2    90   -1.2   0.0   NNE   0.00   3.0   NNE    0.2    0.2    0.2  1036.3  0.00  0.00   0.063   0.000   20.2    35    4.3   18.6   7.05  .0763    117    1    100.0    5 
19/01/17   2:40    0.2    0.2    0.2    90   -1.3   0.0   NNE   0.00   3.0   NNE    0.2    0.1    0.1  1036.4  0.00  0.00   0.063   0.000   20.2    35    4.2   18.5   7.05  .0763    116    1    100.0    5 
19/01/17   2:45    0.1    0.2    0.1    90   -1.3   0.0   NNE   0.00   4.0   NNE    0.1    0.1    0.1  1036.4  0.00  0.00   0.063   0.000   20.1    35    4.1   18.4   7.05  .0763    117    1    100.0    5 
19/01/17   2:50    0.1    0.2    0.1    90   -1.3   1.0   NNE   0.08   5.0   NNE    0.1    0.1    0.1  1036.4  0.00  0.00   0.063   0.000   20.0    35    4.1   18.3   7.05  .0763    117    1    100.0    5 
19/01/17   2:55    0.2    0.2    0.1    90   -1.3   2.0   NNE   0.17   5.0   NNE   -0.4    0.1   -0.4  1036.4  0.00  0.00   0.063   0.000   19.9    35    4.0   18.3   7.05  .0763    117    1    100.0    5 
19/01/17   3:00    0.2    0.2    0.1    90   -1.3   2.0   NNE   0.17   4.0   NNE   -0.4    0.1   -0.4  1036.3  0.00  0.00   0.063   0.000   19.9    35    4.0   18.2   7.05  .0763    116    1    100.0    5 
19/01/17   3:05    0.1    0.2    0.1    90   -1.3   3.0     N   0.25   5.0     N   -1.4    0.1   -1.4  1036.3  0.00  0.00   0.063   0.000   19.8    36    4.3   18.2   7.20  .0763    117    1    100.0    5 
19/01/17   3:10    0.1    0.1    0.1    90   -1.3   3.0     N   0.25   5.0     N   -1.4    0.1   -1.4  1036.3  0.00  0.00   0.063   0.000   19.9    36    4.4   18.3   7.21  .0763    117    1    100.0    5 
19/01/17   3:15    0.1    0.1    0.1    90   -1.3   3.0     N   0.25   5.0     N   -1.4    0.1   -1.4  1036.2  0.00  0.00   0.063   0.000   19.9    36    4.4   18.3   7.21  .0763    117    1    100.0    5 
19/01/17   3:20    0.1    0.1    0.1    90   -1.3   3.0     N   0.25   5.0     N   -1.4    0.1   -1.4  1036.2  0.00  0.00   0.063   0.000   19.9    36    4.4   18.3   7.21  .0763    116    1    100.0    5 
19/01/17   3:25    0.1    0.1    0.1    90   -1.3   3.0     N   0.25   7.0     N   -1.4    0.1   -1.4  1036.1  0.00  0.00   0.063   0.000   19.9    35    4.0   18.2   7.05  .0763    117    1    100.0    5 
19/01/17   3:30    0.1    0.1    0.1    91   -1.2   4.0     N   0.33   8.0   NNE   -2.1    0.1   -2.1  1036.0  0.00  0.00   0.063   0.000   19.9    35    4.0   18.3   7.05  .0763    118    1    100.0    5 
19/01/17   3:35    0.1    0.1    0.1    91   -1.2   4.0   NNE   0.33   6.0     N   -2.1    0.1   -2.1  1036.0  0.00  0.00   0.063   0.000   19.9    35    4.0   18.3   7.05  .0763    117    1    100.0    5 
19/01/17   3:40    0.1    0.1    0.1    91   -1.2   4.0   NNE   0.33   8.0   NNE   -2.1    0.1   -2.1  1035.9  0.00  0.00   0.063   0.000   19.9    35    4.0   18.3   7.05  .0763    117    1    100.0    5 
19/01/17   3:45    0.1    0.1    0.1    91   -1.2   4.0   NNE   0.33   6.0   NNE   -2.1    0.1   -2.1  1035.9  0.00  0.00   0.063   0.000   19.9    35    4.0   18.2   7.05  .0763    116    1    100.0    5 
19/01/17   3:50    0.1    0.1    0.1    91   -1.2   4.0   NNE   0.33   7.0   NNE   -2.1    0.1   -2.1  1035.8  0.00  0.00   0.063   0.000   19.9    35    4.0   18.2   7.05  .0763    117    1    100.0    5 
19/01/17   3:55    0.1    0.2    0.1    91   -1.2   5.0     N   0.42   8.0   NNE   -2.6    0.1   -2.7  1035.7  0.00  0.00   0.063   0.000   19.8    36    4.3   18.2   7.20  .0763    117    1    100.0    5 
19/01/17   4:00    0.1    0.2    0.1    91   -1.2   5.0   NNE   0.42   9.0   NNE   -2.6    0.1   -2.7  1035.7  0.00  0.00   0.063   0.000   19.8    36    4.3   18.2   7.20  .0763    116    1    100.0    5 
19/01/17   4:05    0.2    0.2    0.1    91   -1.1   6.0   NNE   0.50   9.0   NNE   -3.0    0.1   -3.1  1035.7  0.00  0.00   0.063   0.000   19.8    36    4.3   18.2   7.20  .0763    117    1    100.0    5 
19/01/17   4:10    0.2    0.2    0.2    91   -1.1   6.0   NNE   0.50   9.0   NNE   -3.0    0.1   -3.1  1035.5  0.00  0.00   0.063   0.000   19.8    36    4.3   18.2   7.20  .0763    117    1    100.0    5 
19/01/17   4:15    0.2    0.2    0.2    91   -1.1   6.0   NNE   0.50  11.0    NE   -2.9    0.2   -3.0  1035.6  0.00  0.00   0.063   0.000   19.7    36    4.2   18.1   7.20  .0763    117    1    100.0    5 
19/01/17   4:20    0.2    0.2    0.2    91   -1.1   6.0   NNE   0.50  11.0   NNE   -2.9    0.2   -3.0  1035.6  0.00  0.00   0.063   0.000   19.7    36    4.2   18.1   7.20  .0763    117    1    100.0    5 
19/01/17   4:25    0.3    0.3    0.2    91   -1.0   7.0   NNE   0.58  12.0   NNE   -3.3    0.2   -3.3  1035.6  0.00  0.00   0.063   0.000   19.7    36    4.2   18.1   7.20  .0763    117    1    100.0    5 
19/01/17   4:30    0.3    0.3    0.2    91   -1.0   7.0   NNE   0.58  11.0   NNE   -3.3    0.2   -3.3  1035.5  0.00  0.00   0.063   0.000   19.6    36    4.1   18.0   7.20  .0764    116    1    100.0    5 
19/01/17   4:35    0.3    0.3    0.3    91   -1.0   7.0   NNE   0.58  10.0   NNE   -3.3    0.2   -3.3  1035.5  0.00  0.00   0.063   0.000   19.6    36    4.1   17.9   7.19  .0764    117    1    100.0    5 
19/01/17   4:40    0.3    0.3    0.3    91   -1.0   7.0   NNE   0.58  11.0   NNE   -3.3    0.2   -3.3  1035.5  0.00  0.00   0.063   0.000   19.5    36    4.0   17.8   7.19  .0764    116    1    100.0    5 
19/01/17   4:45    0.3    0.3    0.3    91   -1.0   7.0   NNE   0.58  10.0   NNE   -3.3    0.2   -3.3  1035.5  0.00  0.00   0.063   0.000   19.5    36    4.0   17.8   7.19  .0764    117    1    100.0    5 
19/01/17   4:50    0.3    0.3    0.3    91   -1.0   6.0   NNE   0.50  11.0   NNE   -2.9    0.2   -2.9  1035.5  0.00  0.00   0.063   0.000   19.4    36    4.0   17.8   7.19  .0764    117    1    100.0    5 
19/01/17   4:55    0.3    0.3    0.3    91   -1.0   6.0   NNE   0.50   8.0   NNE   -2.9    0.2   -2.9  1035.5  0.00  0.00   0.063   0.000   19.4    36    3.9   17.7   7.19  .0764    117    1    100.0    5 
19/01/17   5:00    0.3    0.3    0.3    91   -1.0   7.0   NNE   0.58   9.0   NNE   -3.3    0.2   -3.3  1035.5  0.00  0.00   0.063   0.000   19.4    36    3.9   17.7   7.19  .0764    117    1    100.0    5 
19/01/17   5:05    0.3    0.3    0.3    92   -0.9   7.0   NNE   0.58  11.0   NNE   -3.3    0.2   -3.3  1035.5  0.00  0.00   0.063   0.000   19.3    36    3.9   17.7   7.19  .0764    116    1    100.0    5 
19/01/17   5:10    0.2    0.3    0.2    91   -1.1   6.0   NNE   0.50   9.0   NNE   -2.9    0.2   -3.0  1035.4  0.00  0.00   0.063   0.000   19.3    36    3.8   17.6   7.18  .0764    116    1    100.0    5 
19/01/17   5:15    0.2    0.3    0.2    91   -1.1   6.0   NNE   0.50   9.0   NNE   -2.9    0.2   -3.0  1035.4  0.00  0.00   0.063   0.000   19.3    36    3.8   17.6   7.18  .0764    117    1    100.0    5 
19/01/17   5:20    0.2    0.2    0.2    91   -1.1   5.0   NNE   0.42   8.0   NNE   -2.6    0.1   -2.6  1035.4  0.00  0.00   0.063   0.000   19.2    36    3.8   17.6   7.18  .0765    117    1    100.0    5 
19/01/17   5:25    0.2    0.2    0.2    91   -1.1   5.0   NNE   0.42   9.0   NNE   -2.6    0.1   -2.6  1035.5  0.00  0.00   0.063   0.000   19.2    36    3.7   17.5   7.18  .0765    115    1    100.0    5 
19/01/17   5:30    0.2    0.2    0.2    91   -1.1   5.0   NNE   0.42   9.0   NNE   -2.6    0.1   -2.6  1035.3  0.00  0.00   0.063   0.000   19.2    36    3.7   17.5   7.18  .0765    117    1    100.0    5 
19/01/17   5:35    0.2    0.2    0.2    91   -1.1   6.0   NNE   0.50  11.0   NNE   -2.9    0.2   -3.0  1035.3  0.00  0.00   0.063   0.000   19.1    36    3.7   17.4   7.18  .0765    116    1    100.0    5 
19/01/17   5:40    0.3    0.3    0.2    91   -1.0   7.0   NNE   0.58  11.0    NE   -3.3    0.2   -3.3  1035.3  0.00  0.00   0.063   0.000   19.1    36    3.7   17.4   7.18  .0765    116    1    100.0    5 
19/01/17   5:45    0.3    0.3    0.3    92   -0.8   7.0   NNE   0.58  11.0   NNE   -3.2    0.3   -3.3  1035.3  0.00  0.00   0.063   0.000   19.1    36    3.6   17.4   7.18  .0765    116    1    100.0    5 
19/01/17   5:50    0.4    0.4    0.3    92   -0.8   7.0   NNE   0.58  11.0   NNE   -3.2    0.3   -3.2  1035.3  0.00  0.00   0.062   0.000   19.0    36    3.6   17.3   7.17  .0765    117    1    100.0    5 
19/01/17   5:55    0.4    0.4    0.4    91   -0.9   6.0   NNE   0.50  11.0   NNE   -2.7    0.3   -2.8  1035.4  0.00  0.00   0.062   0.000   18.9    36    3.5   17.3   7.17  .0765    115    1    100.0    5 
19/01/17   6:00    0.4    0.4    0.4    91   -0.9   7.0   NNE   0.58  10.0    NE   -3.1    0.3   -3.2  1035.3  0.00  0.00   0.062   0.000   18.9    36    3.5   17.2   7.17  .0766    117    1    100.0    5 
19/01/17   6:05    0.5    0.5    0.4    91   -0.8   7.0   NNE   0.58  10.0    NE   -3.0    0.4   -3.1  1035.2  0.00  0.00   0.062   0.000   18.8    36    3.4   17.2   7.17  .0766    115    1    100.0    5 
19/01/17   6:10    0.6    0.6    0.5    92   -0.6   6.0   NNE   0.50  10.0    NE   -2.6    0.4   -2.7  1035.2  0.00  0.00   0.062   0.000   18.8    36    3.4   17.2   7.17  .0766    117    1    100.0    5 
19/01/17   6:15    0.7    0.7    0.6    91   -0.6   4.0   NNE   0.33  10.0    NE   -1.4    0.6   -1.5  1035.2  0.00  0.00   0.061   0.000   18.8    36    3.4   17.1   7.17  .0766    117    1    100.0    5 
19/01/17   6:20    0.7    0.7    0.7    91   -0.6   5.0    NE   0.42  11.0    NE   -1.9    0.6   -2.0  1035.3  0.00  0.00   0.061   0.000   18.8    36    3.4   17.1   7.17  .0766    116    1    100.0    5 
19/01/17   6:25    0.8    0.8    0.7    91   -0.5   5.0   NNE   0.42  11.0    NE   -1.8    0.7   -1.9  1035.4  0.00  0.00   0.061   0.000   18.8    36    3.4   17.1   7.17  .0766    117    1    100.0    5 
19/01/17   6:30    0.9    0.9    0.8    91   -0.4   7.0   NNE   0.58  12.0    NE   -2.5    0.8   -2.6  1035.3  0.00  0.00   0.060   0.000   18.8    36    3.4   17.1   7.17  .0766    117    1    100.0    5 
19/01/17   6:35    1.1    1.1    0.9    91   -0.2   6.0    NE   0.50  11.0    NE   -1.9    0.9   -2.1  1035.3  0.00  0.00   0.060   0.000   18.8    36    3.4   17.1   7.17  .0766    116    1    100.0    5 
19/01/17   6:40    1.1    1.1    1.1    91   -0.2   5.0    NE   0.42  10.0   ENE   -1.4    1.0   -1.6  1035.4  0.00  0.00   0.060   0.000   18.8    36    3.4   17.1   7.17  .0766    117    1    100.0    5 
19/01/17   6:45    1.2    1.2    1.1    91   -0.1   5.0    NE   0.42  11.0   ENE   -1.4    1.1   -1.5  1035.5  0.00  0.00   0.060   0.000   18.8    36    3.4   17.1   7.17  .0766    118    1    100.0    5 
19/01/17   6:50    1.2    1.2    1.2    91   -0.1   5.0    NE   0.42   9.0   NNE   -1.3    1.1   -1.4  1035.6  0.00  0.00   0.059   0.000   18.8    36    3.4   17.1   7.17  .0766    117    1    100.0    5 
19/01/17   6:55    1.2    1.2    1.2    91   -0.1   2.0   ENE   0.17   6.0   ENE    0.8    1.1    0.7  1035.6  0.00  0.00   0.059   0.000   18.8    36    3.4   17.1   7.17  .0766    117    1    100.0    5 
19/01/17   7:00    1.2    1.2    1.2    90   -0.2   2.0    NE   0.17   6.0    NE    0.8    1.1    0.7  1035.5  0.00  0.00   0.059   0.000   18.8    36    3.4   17.2   7.17  .0766    117    1    100.0    5 
19/01/17   7:05    1.2    1.2    1.2    90   -0.2   3.0    NE   0.25   8.0   NNE   -0.1    1.1   -0.2  1035.6  0.00  0.00   0.059   0.000   18.8    37    3.8   17.2   7.35  .0766    116    1    100.0    5 
19/01/17   7:10    1.2    1.2    1.2    90   -0.2   5.0   NNE   0.42  11.0    NE   -1.3    1.1   -1.4  1035.6  0.00  0.00   0.059   0.000   18.9    37    3.9   17.3   7.35  .0766    116    1    100.0    5 
19/01/17   7:15    1.2    1.2    1.2    90   -0.2   6.0   NNE   0.50  10.0    NE   -1.7    1.1   -1.8  1035.6  0.00  0.00   0.059   0.000   18.9    37    3.9   17.3   7.35  .0765    117    1    100.0    5 
19/01/17   7:20    1.3    1.3    1.2    90   -0.2   6.0   NNE   0.50  11.0    NE   -1.7    1.2   -1.8  1035.7  0.00  0.00   0.059   0.000   18.9    37    3.9   17.3   7.35  .0765    117    1    100.0    5 
19/01/17   7:25    1.3    1.3    1.3    90   -0.1   7.0   NNE   0.58  11.0   NNE   -2.0    1.2   -2.1  1035.6  0.00  0.00   0.059   0.000   18.9    37    3.9   17.3   7.35  .0765    116    1    100.0    5 
19/01/17   7:30    1.4    1.4    1.3    90   -0.1   7.0   NNE   0.58  10.0   NNE   -1.9    1.3   -2.1  1035.6  0.00  0.00   0.059   0.000   19.0    37    4.0   17.4   7.35  .0765    116    1    100.0    5 
19/01/17   7:35    1.5    1.5    1.4    90    0.0   9.0   NNE   0.75  15.0   NNE   -2.4    1.4   -2.5  1035.6  0.00  0.00   0.058   0.000   19.0    37    4.0   17.4   7.35  .0765    115    1    100.0    5 
19/01/17   7:40    1.6    1.6    1.5    90    0.1   8.0   NNE   0.67  13.0    NE   -2.1    1.5   -2.1  1035.6  0.00  0.00   0.058   0.000   19.0    37    4.0   17.4   7.35  .0765    117    1    100.0    5 
19/01/17   7:45    1.7    1.7    1.6    90    0.2   8.0   NNE   0.67  15.0   NNE   -1.9    1.6   -2.0  1035.7  0.00  0.00   0.058   0.000   19.0    37    4.0   17.4   7.35  .0765    117    1    100.0    5 
19/01/17   7:50    1.7    1.7    1.7    90    0.3   8.0   NNE   0.67  13.0   NNE   -1.9    1.7   -1.9  1035.7  0.00  0.00   0.058   0.000   19.1    37    4.0   17.4   7.35  .0765    118    1    100.0    5 
19/01/17   7:55    1.8    1.8    1.7    90    0.3   7.0   NNE   0.58  14.0    NE   -1.4    1.7   -1.5  1035.7  0.00  0.00   0.057   0.000   19.1    37    4.0   17.4   7.35  .0765    115    1    100.0    5 
19/01/17   8:00    1.8    1.8    1.8    89    0.2   9.0   NNE   0.75  14.0    NE   -2.1    1.7   -2.2  1035.6  0.00  0.00   0.057   0.000   19.1    38    4.4   17.5   7.55  .0765    117    1    100.0    5 
19/01/17   8:05    1.8    1.8    1.8    89    0.2   6.0   NNE   0.50  11.0   NNE   -1.0    1.8   -1.1  1035.7  0.00  0.00   0.057   0.000   19.1    38    4.4   17.6   7.55  .0765    117    1    100.0    5 
19/01/17   8:10    1.9    1.9    1.8    89    0.3   6.0   NNE   0.50  11.0    NE   -0.9    1.8   -1.0  1035.6  0.00  0.00   0.057   0.000   19.2    38    4.5   17.6   7.55  .0765    117    1    100.0    5 
19/01/17   8:15    2.0    2.0    1.9    89    0.4   8.0   NNE   0.67  14.0    NE   -1.6    1.9   -1.6  1035.7  0.00  0.00   0.057   0.000   19.2    38    4.5   17.6   7.55  .0765    115    1    100.0    5 
19/01/17   8:20    2.1    2.1    2.0    88    0.3   8.0   NNE   0.67  13.0    NE   -1.4    2.0   -1.5  1035.7  0.00  0.00   0.057   0.000   19.2    38    4.5   17.7   7.55  .0764    116    1    100.0    5 
19/01/17   8:25    2.2    2.2    2.1    88    0.4   9.0    NE   0.75  14.0    NE   -1.6    2.2   -1.6  1035.7  0.00  0.00   0.056   0.000   19.3    38    4.6   17.7   7.55  .0764    116    1    100.0    5 
19/01/17   8:30    2.3    2.3    2.2    88    0.5   9.0   NNE   0.75  14.0     N   -1.4    2.3   -1.5  1035.7  0.00  0.00   0.056   0.000   19.3    38    4.6   17.7   7.55  .0764    117    1    100.0    5 
19/01/17   8:35    2.4    2.4    2.3    88    0.7   8.0   NNE   0.67  13.0   NNE   -1.0    2.4   -1.1  1035.8  0.00  0.00   0.055   0.000   19.3    38    4.6   17.7   7.55  .0764    117    1    100.0    5 
19/01/17   8:40    2.6    2.6    2.4    87    0.6   7.0   NNE   0.58  14.0    NE   -0.6    2.4   -0.7  1035.9  0.00  0.00   0.055   0.000   19.3    38    4.6   17.7   7.55  .0764    116    1    100.0    5 
19/01/17   8:45    2.7    2.7    2.6    87    0.8   6.0    NE   0.50  12.0   NNE    0.1    2.6   -0.1  1035.9  0.00  0.00   0.054   0.000   19.3    38    4.6   17.8   7.55  .0764    116    1    100.0    5 
19/01/17   8:50    2.9    2.9    2.7    86    0.8   6.0   NNE   0.50  13.0    NE    0.2    2.8    0.1  1035.9  0.00  0.00   0.054   0.000   19.4    38    4.7   17.9   7.55  .0764    117    1    100.0    5 
19/01/17   8:55    3.1    3.1    2.9    86    1.0   6.0   NNE   0.50  11.0    NE    0.5    3.0    0.4  1035.8  0.00  0.00   0.053   0.000   19.4    38    4.7   17.9   7.55  .0764    118    1    100.0    5 
19/01/17   9:00    3.3    3.3    3.1    86    1.2   6.0   NNE   0.50  13.0    NE    0.8    3.2    0.7  1035.8  0.01  0.00   0.052   0.000   19.4    38    4.7   17.9   7.55  .0764    115    1    100.0    5 
19/01/17   9:05    3.6    3.6    3.3    85    1.3   6.0   NNE   0.50  10.0    NE    1.1    3.4    0.9  1035.8  0.00  0.00   0.051   0.000   19.5    38    4.8   18.0   7.55  .0764    117    1    100.0    5 
19/01/17   9:10    3.8    3.8    3.6    85    1.5   5.0   NNE   0.42  13.0    NE    1.8    3.7    1.7  1035.8  0.00  0.00   0.050   0.000   19.5    38    4.8   18.0   7.55  .0764    117    1    100.0    5 
19/01/17   9:15    4.1    4.1    3.8    84    1.6   5.0    NE   0.42  12.0    NE    2.1    3.9    1.9  1035.9  0.00  0.00   0.050   0.000   19.6    38    4.8   18.1   7.55  .0764    116    1    100.0    5 
19/01/17   9:20    4.2    4.2    4.1    83    1.5   7.0    NE   0.58  15.0   NNE    1.4    4.1    1.3  1035.9  0.00  0.00   0.049   0.000   19.6    39    5.3   18.2   7.70  .0763    117    1    100.0    5 
19/01/17   9:25    4.3    4.3    4.2    83    1.7   5.0   NNE   0.42  10.0   ENE    2.3    4.2    2.2  1035.9  0.00  0.00   0.049   0.000   19.7    39    5.3   18.2   7.70  .0763    117    1    100.0    5 
19/01/17   9:30    4.6    4.6    4.3    82    1.7   7.0   NNE   0.58  14.0    NE    1.8    4.4    1.7  1036.0  0.00  0.00   0.048   0.000   19.7    39    5.4   18.3   7.70  .0763    117    1    100.0    5 
19/01/17   9:35    4.7    4.7    4.6    82    1.9   6.0    NE   0.50  13.0    NE    2.4    4.6    2.2  1036.0  0.00  0.00   0.047   0.000   19.8    39    5.4   18.3   7.70  .0763    117    1    100.0    5 
19/01/17   9:40    4.9    4.9    4.7    81    1.9   7.0    NE   0.58  12.0    NE    2.3    4.7    2.1  1036.1  0.00  0.00   0.047   0.000   19.8    39    5.5   18.4   7.70  .0763    116    1    100.0    5 
19/01/17   9:45    4.9    4.9    4.9    80    1.8   7.0    NE   0.58  13.0   ENE    2.3    4.8    2.2  1036.0  0.00  0.00   0.046   0.000   19.9    39    5.5   18.5   7.69  .0763    116    1    100.0    5 
19/01/17   9:50    5.1    5.1    4.9    80    1.9   7.0    NE   0.58  12.0   NNE    2.4    4.9    2.3  1036.0  0.00  0.00   0.046   0.000   19.9    38    5.2   18.5   7.55  .0763    117    1    100.0    5 
19/01/17   9:55    5.1    5.1    5.1    79    1.8   7.0    NE   0.58  11.0   ENE    2.5    4.9    2.3  1035.9  0.00  0.00   0.046   0.000   19.9    38    5.2   18.5   7.55  .0763    116    1    100.0    5 
19/01/17  10:00    5.2    5.2    5.1    79    1.8   7.0    NE   0.58  16.0    NE    2.6    5.0    2.4  1035.9  0.00  0.00   0.046   0.000   20.0    38    5.2   18.6   7.55  .0762    118    1    100.0    5 
19/01/17  10:05    5.3    5.3    5.2    79    2.0   7.0    NE   0.58  13.0    NE    2.8    5.2    2.6  1035.9  0.00  0.00   0.045   0.000   20.0    38    5.2   18.6   7.55  .0762    117    1    100.0    5 
19/01/17  10:10    5.4    5.4    5.3    79    2.1   6.0    NE   0.50  11.0    NE    3.3    5.3    3.1  1035.9  0.00  0.00   0.045   0.000   20.1    39    5.7   18.7   7.69  .0762    117    1    100.0    5 
19/01/17  10:15    5.6    5.6    5.4    78    2.0   7.0    NE   0.58  12.0    NE    3.1    5.4    2.9  1036.0  0.00  0.00   0.044   0.000   20.1    39    5.7   18.7   7.69  .0762    116    1    100.0    5 
19/01/17  10:20    5.7    5.7    5.6    78    2.1   6.0    NE   0.50  14.0    NE    3.5    5.5    3.3  1035.9  0.00  0.00   0.044   0.000   20.2    39    5.8   18.8   7.68  .0761    117    1    100.0    5 
19/01/17  10:25    5.7    5.8    5.7    77    2.0   7.0   NNE   0.58  14.0   ENE    3.3    5.5    3.1  1035.9  0.00  0.00   0.044   0.000   20.2    38    5.4   18.8   7.55  .0762    117    1    100.0    5 
19/01/17  10:30    5.7    5.8    5.7    77    1.9   8.0   NNE   0.67  15.0    NE    2.9    5.4    2.7  1035.9  0.00  0.00   0.044   0.000   20.3    38    5.5   18.9   7.55  .0761    117    1    100.0    5 
19/01/17  10:35    5.8    5.8    5.7    77    2.1   5.0   NNE   0.42  11.0   NNE    4.1    5.6    3.8  1035.9  0.00  0.00   0.044   0.000   20.3    39    5.9   18.9   7.68  .0761    116    1    100.0    5 
19/01/17  10:40    6.0    6.0    5.8    77    2.3   7.0    NE   0.58  12.0    NE    3.6    5.8    3.4  1035.8  0.00  0.00   0.043   0.000   20.3    39    5.9   18.9   7.68  .0761    117    1    100.0    5 
19/01/17  10:45    6.0    6.0    6.0    77    2.3   7.0    NE   0.58  14.0   NNE    3.6    5.8    3.4  1035.8  0.00  0.00   0.043   0.000   20.4    38    5.6   19.0   7.55  .0761    117    1    100.0    5 
19/01/17  10:50    6.1    6.1    6.0    77    2.3   8.0    NE   0.67  15.0    NE    3.4    5.8    3.2  1035.7  0.00  0.00   0.043   0.000   20.4    39    6.0   19.1   7.67  .0761    116    1    100.0    5 
19/01/17  10:55    6.2    6.2    6.1    77    2.4   7.0   NNE   0.58  14.0    NE    3.8    5.9    3.6  1035.7  0.00  0.00   0.042   0.000   20.5    39    6.1   19.1   7.67  .0761    117    1    100.0    5 
19/01/17  11:00    6.3    6.3    6.2    77    2.5   7.0   NNE   0.58  15.0    NE    4.0    6.1    3.8  1035.7  0.00  0.00   0.042   0.000   20.6    39    6.1   19.2   7.67  .0760    117    1    100.0    5 
19/01/17  11:05    6.3    6.3    6.2    77    2.5   8.0   NNE   0.67  17.0   NNE    3.7    6.1    3.5  1035.7  0.00  0.00   0.042   0.000   20.6    38    5.8   19.1   7.55  .0760    118    1    100.0    5 
19/01/17  11:10    6.4    6.4    6.3    77    2.6   9.0   NNE   0.75  14.0   NNE    3.4    6.2    3.3  1035.5  0.00  0.00   0.041   0.000   20.6    38    5.8   19.1   7.55  .0760    117    1    100.0    5 
19/01/17  11:15    6.4    6.4    6.3    76    2.5  10.0   NNE   0.83  16.0    NE    3.2    6.2    2.9  1035.5  0.00  0.00   0.041   0.000   20.7    38    5.8   19.2   7.55  .0760    117    1    100.0    5 
19/01/17  11:20    6.4    6.4    6.3    76    2.5   8.0   NNE   0.67  13.0   NNE    3.8    6.2    3.6  1035.4  0.00  0.00   0.041   0.000   20.7    38    5.9   19.2   7.55  .0760    116    1    100.0    5 
19/01/17  11:25    6.7    6.7    6.4    77    2.9   6.0   NNE   0.50  11.0   NNE    4.7    6.5    4.6  1035.4  0.00  0.00   0.041   0.000   20.7    38    5.9   19.2   7.55  .0760    117    1    100.0    5 
19/01/17  11:30    6.9    6.9    6.7    76    2.9   6.0   NNE   0.50   9.0   NNE    5.0    6.7    4.8  1035.4  0.00  0.00   0.040   0.000   20.8    39    6.3   19.3   7.66  .0759    117    1    100.0    5 
19/01/17  11:35    7.2    7.2    6.9    77    3.5   2.0    NE   0.17   7.0     N    7.2    7.1    7.1  1035.3  0.00  0.00   0.039   0.000   20.8    39    6.4   19.3   7.66  .0759    116    1    100.0    5 
19/01/17  11:40    7.5    7.5    7.3    77    3.7   4.0    NE   0.33  10.0   NNE    6.5    7.3    6.3  1035.2  0.00  0.00   0.038   0.000   20.9    39    6.4   19.4   7.66  .0759    117    1    100.0    5 
19/01/17  11:45    7.8    7.8    7.5    76    3.8   2.0    NE   0.17   6.0   NNE    7.8    7.6    7.6  1035.2  0.00  0.00   0.037   0.000   20.9    39    6.5   19.4   7.66  .0759    117    1    100.0    5 
19/01/17  11:50    8.0    8.0    7.8    74    3.6   4.0   NNE   0.33   9.0    NE    7.1    7.8    6.8  1035.1  0.00  0.00   0.036   0.000   20.9    39    6.5   19.4   7.66  .0759    117    1    100.0    5 
19/01/17  11:55    8.2    8.2    8.0    72    3.4   4.0   NNE   0.33   9.0   NNE    7.2    7.9    7.0  1035.1  0.00  0.00   0.035   0.000   21.1    39    6.6   19.5   7.65  .0758    117    1    100.0    5 
19/01/17  12:00    8.2    8.2    8.1    71    3.2   6.0   NNE   0.50  13.0    NE    6.5    7.9    6.2  1035.1  0.00  0.00   0.035   0.000   21.1    38    6.2   19.5   7.55  .0758    116    1    100.0    5 
19/01/17  12:05    8.2    8.2    8.2    70    3.0   5.0   NNE   0.42  12.0   NNE    6.8    7.9    6.6  1035.1  0.00  0.00   0.035   0.000   21.1    38    6.2   19.5   7.55  .0758    117    1    100.0    5 
89818